| time (UTC) | temp C | wind direction | speed KPH | gust KPH | rain 1hr cm | rain 24hr cm | rain mn cm | humidity % | barometer mb |
| 20260507142428 | 20 | 205 | 12.9 | 27.4 | 0.00 | 0.00 | 0.00 | 43 | 101.2 |
| 20260507142322 | 20 | 205 | 12.9 | 27.4 | 0.00 | 0.00 | 0.00 | 43 | 101.2 |
| 20260507142216 | 20 | 205 | 12.9 | 27.4 | 0.00 | 0.00 | 0.00 | 43 | 101.2 |
| 20260507142109 | 20 | 205 | 12.9 | 27.4 | 0.00 | 0.00 | 0.00 | 43 | 101.2 |
| 20260507142003 | 19 | 205 | 12.9 | 27.4 | 0.00 | 0.00 | 0.00 | 47 | 101.1 |
| 20260507141857 | 19 | 205 | 12.9 | 27.4 | 0.00 | 0.00 | 0.00 | 47 | 101.1 |
| 20260507141751 | 19 | 205 | 12.9 | 27.4 | 0.00 | 0.00 | 0.00 | 47 | 101.1 |
| 20260507141645 | 19 | 205 | 12.9 | 27.4 | 0.00 | 0.00 | 0.00 | 47 | 101.1 |
| 20260507141538 | 19 | 205 | 12.9 | 27.4 | 0.00 | 0.00 | 0.00 | 47 | 101.1 |
| 20260507141432 | 18 | 196 | 9.7 | 16.1 | 0.00 | 0.00 | 0.00 | 56 | 101.1 |
| 20260507141326 | 18 | 196 | 9.7 | 16.1 | 0.00 | 0.00 | 0.00 | 56 | 101.1 |
| 20260507141220 | 18 | 196 | 9.7 | 16.1 | 0.00 | 0.00 | 0.00 | 56 | 101.1 |
| 20260507141114 | 18 | 196 | 9.7 | 16.1 | 0.00 | 0.00 | 0.00 | 56 | 101.1 |
| 20260507141008 | 18 | 196 | 9.7 | 16.1 | 0.00 | 0.00 | 0.00 | 49 | 101.1 |
| 20260507140901 | 18 | 141 | 4.8 | 8.0 | 0.00 | 0.00 | 0.00 | 59 | 101.2 |
| 20260507140755 | 18 | 141 | 4.8 | 8.0 | 0.00 | 0.00 | 0.00 | 59 | 101.2 |
| 20260507140649 | 18 | 141 | 4.8 | 8.0 | 0.00 | 0.00 | 0.00 | 59 | 101.2 |
| 20260507140542 | 18 | 141 | 4.8 | 8.0 | 0.00 | 0.00 | 0.00 | 59 | 101.2 |
| 20260507140435 | 18 | 141 | 4.8 | 8.0 | 0.00 | 0.00 | 0.00 | 59 | 101.2 |
| 20260507140329 | 18 | 141 | 4.8 | 8.0 | 0.00 | 0.00 | 0.00 | 59 | 101.2 |
| 20260507140223 | 18 | 141 | 4.8 | 8.0 | 0.00 | 0.00 | 0.00 | 59 | 101.2 |
| 20260507140116 | 18 | 141 | 4.8 | 8.0 | 0.00 | 0.00 | 0.00 | 59 | 101.2 |
| 20260507140010 | 18 | 141 | 4.8 | 8.0 | 0.00 | 0.00 | 0.00 | 59 | 101.2 |
| 20260507135904 | 18 | 141 | 4.8 | 8.0 | 0.00 | 0.00 | 0.00 | 59 | 101.2 |
| 20260507135758 | 18 | 141 | 4.8 | 9.7 | 0.00 | 0.00 | 0.00 | 60 | 101.2 |
| 20260507135652 | 18 | 141 | 4.8 | 9.7 | 0.00 | 0.00 | 0.00 | 60 | 101.2 |
| 20260507135545 | 18 | 141 | 4.8 | 9.7 | 0.00 | 0.00 | 0.00 | 60 | 101.2 |
| 20260507135439 | 18 | 141 | 4.8 | 9.7 | 0.00 | 0.00 | 0.00 | 60 | 101.2 |
| 20260507135333 | 18 | 141 | 6.4 | 11.3 | 0.00 | 0.00 | 0.00 | 61 | 101.2 |
| 20260507135227 | 18 | 141 | 6.4 | 11.3 | 0.00 | 0.00 | 0.00 | 61 | 101.2 |
| 20260507135121 | 18 | 141 | 6.4 | 11.3 | 0.00 | 0.00 | 0.00 | 61 | 101.2 |
| 20260507135014 | 18 | 141 | 6.4 | 11.3 | 0.00 | 0.00 | 0.00 | 61 | 101.2 |
| 20260507134729 | 18 | 141 | 6.4 | 11.3 | 0.00 | 0.00 | 0.00 | 61 | 101.2 |
| 20260507134623 | 18 | 141 | 6.4 | 11.3 | 0.00 | 0.00 | 0.00 | 61 | 101.2 |
| 20260507134515 | 18 | 141 | 6.4 | 11.3 | 0.00 | 0.00 | 0.00 | 61 | 101.2 |
| 20260507134409 | 18 | 141 | 6.4 | 11.3 | 0.00 | 0.00 | 0.00 | 61 | 101.2 |
| 20260507134303 | 18 | 141 | 8.0 | 12.9 | 0.00 | 0.00 | 0.00 | 58 | 101.2 |
| 20260507134156 | 18 | 141 | 8.0 | 12.9 | 0.00 | 0.00 | 0.00 | 58 | 101.2 |
| 20260507134050 | 18 | 141 | 8.0 | 12.9 | 0.00 | 0.00 | 0.00 | 58 | 101.2 |
| 20260507133944 | 18 | 141 | 8.0 | 12.9 | 0.00 | 0.00 | 0.00 | 58 | 101.2 |
| 20260507133838 | 18 | 141 | 8.0 | 12.9 | 0.00 | 0.00 | 0.00 | 58 | 101.2 |
| 20260507133732 | 18 | 141 | 8.0 | 12.9 | 0.00 | 0.00 | 0.00 | 58 | 101.2 |
| 20260507133625 | 18 | 141 | 8.0 | 12.9 | 0.00 | 0.00 | 0.00 | 58 | 101.2 |
| 20260507133519 | 17 | 141 | 9.7 | 14.5 | 0.00 | 0.00 | 0.00 | 52 | 101.3 |
| 20260507133413 | 17 | 141 | 9.7 | 14.5 | 0.00 | 0.00 | 0.00 | 52 | 101.3 |
| 20260507133306 | 17 | 141 | 9.7 | 14.5 | 0.00 | 0.00 | 0.00 | 52 | 101.3 |
| 20260507133200 | 17 | 141 | 9.7 | 14.5 | 0.00 | 0.00 | 0.00 | 52 | 101.3 |
| 20260507133054 | 17 | 141 | 9.7 | 14.5 | 0.00 | 0.00 | 0.00 | 52 | 101.3 |
| 20260507132947 | 17 | 141 | 9.7 | 14.5 | 0.00 | 0.00 | 0.00 | 52 | 101.3 |
| 20260507132841 | 17 | 141 | 9.7 | 14.5 | 0.00 | 0.00 | 0.00 | 52 | 101.3 |
| 20260507132735 | 17 | 141 | 9.7 | 14.5 | 0.00 | 0.00 | 0.00 | 52 | 101.3 |
| 20260507132629 | 17 | 141 | 9.7 | 14.5 | 0.00 | 0.00 | 0.00 | 52 | 101.3 |
| 20260507132523 | 17 | 141 | 11.3 | 16.1 | 0.00 | 0.00 | 0.00 | 53 | 101.3 |
| 20260507132416 | 17 | 141 | 11.3 | 16.1 | 0.00 | 0.00 | 0.00 | 53 | 101.3 |
| 20260507132310 | 17 | 141 | 11.3 | 16.1 | 0.00 | 0.00 | 0.00 | 53 | 101.3 |
| 20260507132204 | 17 | 141 | 11.3 | 16.1 | 0.00 | 0.00 | 0.00 | 53 | 101.3 |
| 20260507132058 | 17 | 141 | 11.3 | 16.1 | 0.00 | 0.00 | 0.00 | 53 | 101.3 |
| 20260507131951 | 17 | 141 | 11.3 | 16.1 | 0.00 | 0.00 | 0.00 | 53 | 101.3 |
| 20260507131845 | 17 | 141 | 11.3 | 16.1 | 0.00 | 0.00 | 0.00 | 53 | 101.3 |
| 20260507131739 | 17 | 141 | 11.3 | 16.1 | 0.00 | 0.00 | 0.00 | 53 | 101.3 |
| 20260507131633 | 17 | 141 | 11.3 | 16.1 | 0.00 | 0.00 | 0.00 | 53 | 101.3 |
| 20260507131527 | 17 | 141 | 11.3 | 16.1 | 0.00 | 0.00 | 0.00 | 53 | 101.3 |
| 20260507131420 | 17 | 141 | 12.9 | 17.7 | 0.00 | 0.00 | 0.00 | 56 | 101.3 |
| 20260507131314 | 17 | 141 | 12.9 | 17.7 | 0.00 | 0.00 | 0.00 | 56 | 101.3 |
| 20260507131208 | 17 | 141 | 12.9 | 17.7 | 0.00 | 0.00 | 0.00 | 56 | 101.3 |
| 20260507131102 | 17 | 141 | 12.9 | 17.7 | 0.00 | 0.00 | 0.00 | 56 | 101.3 |
| 20260507130956 | 16 | 141 | 14.5 | 20.9 | 0.00 | 0.00 | 0.00 | 61 | 101.3 |
| 20260507130849 | 16 | 141 | 14.5 | 20.9 | 0.00 | 0.00 | 0.00 | 61 | 101.3 |
| 20260507130743 | 16 | 141 | 14.5 | 20.9 | 0.00 | 0.00 | 0.00 | 61 | 101.3 |
| 20260507130637 | 16 | 141 | 14.5 | 20.9 | 0.00 | 0.00 | 0.00 | 61 | 101.3 |
| 20260507130531 | 16 | 141 | 14.5 | 20.9 | 0.00 | 0.00 | 0.00 | 61 | 101.3 |
| 20260507130425 | 16 | 141 | 14.5 | 20.9 | 0.00 | 0.00 | 0.00 | 61 | 101.3 |
| 20260507130318 | 16 | 141 | 14.5 | 20.9 | 0.00 | 0.00 | 0.00 | 61 | 101.3 |
| 20260507130212 | 16 | 141 | 16.1 | 24.1 | 0.00 | 0.00 | 0.00 | 59 | 101.3 |
| 20260507130106 | 16 | 141 | 16.1 | 24.1 | 0.00 | 0.00 | 0.00 | 59 | 101.3 |
| 20260507130000 | 16 | 141 | 16.1 | 24.1 | 0.00 | 0.00 | 0.00 | 59 | 101.3 |
| 20260507125854 | 16 | 141 | 16.1 | 24.1 | 0.00 | 0.00 | 0.00 | 59 | 101.3 |
| 20260507125747 | 16 | 141 | 16.1 | 24.1 | 0.00 | 0.00 | 0.00 | 59 | 101.3 |
| 20260507125641 | 17 | 115 | 16.1 | 24.1 | 0.00 | 0.00 | 0.00 | 55 | 101.3 |
| 20260507125535 | 17 | 115 | 16.1 | 24.1 | 0.00 | 0.00 | 0.00 | 55 | 101.3 |
| 20260507125429 | 17 | 115 | 16.1 | 24.1 | 0.00 | 0.00 | 0.00 | 55 | 101.3 |
| 20260507125323 | 17 | 115 | 16.1 | 24.1 | 0.00 | 0.00 | 0.00 | 55 | 101.3 |
| 20260507125217 | 17 | 115 | 16.1 | 24.1 | 0.00 | 0.00 | 0.00 | 55 | 101.3 |
| 20260507125109 | 17 | 115 | 16.1 | 24.1 | 0.00 | 0.00 | 0.00 | 55 | 101.3 |
| 20260507125003 | 17 | 115 | 16.1 | 24.1 | 0.00 | 0.00 | 0.00 | 55 | 101.3 |
| 20260507124856 | 17 | 115 | 16.1 | 24.1 | 0.00 | 0.00 | 0.00 | 55 | 101.3 |
| 20260507124750 | 17 | 115 | 16.1 | 24.1 | 0.00 | 0.00 | 0.00 | 55 | 101.3 |
| 20260507124644 | 17 | 115 | 16.1 | 24.1 | 0.00 | 0.00 | 0.00 | 55 | 101.3 |
| 20260507124538 | 17 | 115 | 19.3 | 27.4 | 0.00 | 0.00 | 0.00 | 56 | 101.3 |
| 20260507124432 | 17 | 115 | 19.3 | 27.4 | 0.00 | 0.00 | 0.00 | 56 | 101.3 |
| 20260507124325 | 17 | 115 | 19.3 | 27.4 | 0.00 | 0.00 | 0.00 | 56 | 101.3 |
| 20260507124219 | 17 | 115 | 19.3 | 27.4 | 0.00 | 0.00 | 0.00 | 56 | 101.3 |
| 20260507124113 | 17 | 115 | 19.3 | 27.4 | 0.00 | 0.00 | 0.00 | 56 | 101.3 |
| 20260507124007 | 17 | 115 | 19.3 | 27.4 | 0.00 | 0.00 | 0.00 | 56 | 101.3 |
| 20260507123900 | 17 | 115 | 19.3 | 27.4 | 0.00 | 0.00 | 0.00 | 56 | 101.3 |
| 20260507123754 | 17 | 115 | 19.3 | 27.4 | 0.00 | 0.00 | 0.00 | 56 | 101.3 |
| 20260507123648 | 17 | 115 | 19.3 | 27.4 | 0.00 | 0.00 | 0.00 | 56 | 101.3 |
| 20260507123542 | 17 | 115 | 19.3 | 27.4 | 0.00 | 0.00 | 0.00 | 56 | 101.3 |
| 20260507123436 | 18 | 115 | 22.5 | 30.6 | 0.00 | 0.00 | 0.00 | 53 | 101.3 |
| 20260507123325 | 18 | 115 | 22.5 | 30.6 | 0.00 | 0.00 | 0.00 | 53 | 101.3 |
| 20260507123218 | 18 | 115 | 22.5 | 30.6 | 0.00 | 0.00 | 0.00 | 53 | 101.3 |
| 20260507123112 | 18 | 115 | 22.5 | 30.6 | 0.00 | 0.00 | 0.00 | 53 | 101.3 |
| 20260507123006 | 18 | 115 | 22.5 | 30.6 | 0.00 | 0.00 | 0.00 | 53 | 101.3 |
| 20260507122900 | 18 | 115 | 22.5 | 30.6 | 0.00 | 0.00 | 0.00 | 53 | 101.3 |
| 20260507122754 | 18 | 115 | 22.5 | 30.6 | 0.00 | 0.00 | 0.00 | 53 | 101.3 |
| 20260507122647 | 18 | 115 | 22.5 | 30.6 | 0.00 | 0.00 | 0.00 | 53 | 101.3 |
| 20260507122541 | 18 | 115 | 22.5 | 30.6 | 0.00 | 0.00 | 0.00 | 53 | 101.3 |
| 20260507122435 | 18 | 115 | 22.5 | 30.6 | 0.00 | 0.00 | 0.00 | 53 | 101.3 |
| 20260507122329 | 18 | 115 | 22.5 | 30.6 | 0.00 | 0.00 | 0.00 | 48 | 101.3 |
| 20260507122223 | 18 | 115 | 22.5 | 30.6 | 0.00 | 0.00 | 0.00 | 48 | 101.3 |
| 20260507122116 | 18 | 115 | 22.5 | 30.6 | 0.00 | 0.00 | 0.00 | 48 | 101.3 |
| 20260507122010 | 18 | 115 | 22.5 | 30.6 | 0.00 | 0.00 | 0.00 | 48 | 101.3 |
| 20260507121904 | 18 | 115 | 22.5 | 30.6 | 0.00 | 0.00 | 0.00 | 48 | 101.3 |
| 20260507121758 | 18 | 115 | 22.5 | 30.6 | 0.00 | 0.00 | 0.00 | 48 | 101.3 |
| 20260507121652 | 18 | 194 | 14.5 | 27.4 | 0.00 | 0.00 | 0.00 | 48 | 101.3 |
| 20260507121545 | 18 | 194 | 14.5 | 27.4 | 0.00 | 0.00 | 0.00 | 48 | 101.3 |
| 20260507121439 | 18 | 194 | 14.5 | 27.4 | 0.00 | 0.00 | 0.00 | 48 | 101.3 |
| 20260507121333 | 18 | 194 | 14.5 | 27.4 | 0.00 | 0.00 | 0.00 | 48 | 101.3 |
| 20260507121227 | 18 | 194 | 14.5 | 27.4 | 0.00 | 0.00 | 0.00 | 48 | 101.3 |
| 20260507121121 | 18 | 194 | 14.5 | 27.4 | 0.00 | 0.00 | 0.00 | 48 | 101.3 |
| 20260507121014 | 18 | 194 | 14.5 | 27.4 | 0.00 | 0.00 | 0.00 | 48 | 101.3 |
| 20260507120908 | 18 | 194 | 14.5 | 27.4 | 0.00 | 0.00 | 0.00 | 48 | 101.3 |
| 20260507120802 | 18 | 194 | 14.5 | 27.4 | 0.00 | 0.00 | 0.00 | 48 | 101.3 |
| 20260507120656 | 18 | 194 | 14.5 | 27.4 | 0.00 | 0.00 | 0.00 | 48 | 101.3 |
| 20260507120550 | 18 | 194 | 16.1 | 30.6 | 0.00 | 0.00 | 0.00 | 48 | 101.3 |
| 20260507120443 | 18 | 194 | 16.1 | 30.6 | 0.00 | 0.00 | 0.00 | 48 | 101.3 |
| 20260507120337 | 18 | 194 | 16.1 | 30.6 | 0.00 | 0.00 | 0.00 | 48 | 101.3 |
| 20260507120231 | 18 | 194 | 17.7 | 35.4 | 0.00 | 0.00 | 0.00 | 48 | 101.3 |
| 20260507120125 | 18 | 194 | 17.7 | 35.4 | 0.00 | 0.00 | 0.00 | 48 | 101.3 |
| 20260507120018 | 18 | 194 | 17.7 | 35.4 | 0.00 | 0.00 | 0.00 | 48 | 101.3 |
| 20260507115912 | 18 | 194 | 17.7 | 35.4 | 0.00 | 0.00 | 0.00 | 48 | 101.3 |
| 20260507115806 | 18 | 194 | 17.7 | 35.4 | 0.00 | 0.00 | 0.00 | 48 | 101.3 |
| 20260507115700 | 18 | 194 | 17.7 | 35.4 | 0.00 | 0.00 | 0.00 | 48 | 101.3 |
| 20260507115553 | 18 | 194 | 17.7 | 35.4 | 0.00 | 0.00 | 0.00 | 48 | 101.3 |
| 20260507115447 | 18 | 194 | 17.7 | 35.4 | 0.00 | 0.00 | 0.00 | 48 | 101.3 |
| 20260507115341 | 18 | 194 | 17.7 | 35.4 | 0.00 | 0.00 | 0.00 | 48 | 101.3 |
| 20260507115235 | 18 | 194 | 17.7 | 35.4 | 0.00 | 0.00 | 0.00 | 48 | 101.3 |
| 20260507115021 | 18 | 194 | 17.7 | 35.4 | 0.00 | 0.00 | 0.00 | 48 | 101.3 |
| 20260507114915 | 18 | 194 | 17.7 | 35.4 | 0.00 | 0.00 | 0.00 | 48 | 101.3 |
| 20260507114809 | 18 | 221 | 11.3 | 35.4 | 0.00 | 0.00 | 0.00 | 49 | 101.3 |
| 20260507114703 | 18 | 221 | 11.3 | 35.4 | 0.00 | 0.00 | 0.00 | 49 | 101.3 |
| 20260507114557 | 18 | 221 | 11.3 | 35.4 | 0.00 | 0.00 | 0.00 | 49 | 101.3 |
| 20260507114450 | 18 | 221 | 11.3 | 35.4 | 0.00 | 0.00 | 0.00 | 49 | 101.3 |
| 20260507114344 | 18 | 221 | 11.3 | 35.4 | 0.00 | 0.00 | 0.00 | 49 | 101.3 |
| 20260507114238 | 18 | 221 | 11.3 | 35.4 | 0.00 | 0.00 | 0.00 | 49 | 101.3 |
| 20260507114132 | 18 | 221 | 11.3 | 35.4 | 0.00 | 0.00 | 0.00 | 49 | 101.3 |
| 20260507114025 | 18 | 221 | 11.3 | 35.4 | 0.00 | 0.00 | 0.00 | 49 | 101.3 |
| 20260507113919 | 18 | 221 | 11.3 | 35.4 | 0.00 | 0.00 | 0.00 | 49 | 101.3 |
| 20260507113813 | 18 | 221 | 11.3 | 35.4 | 0.00 | 0.00 | 0.00 | 49 | 101.3 |
| 20260507113707 | 18 | 221 | 11.3 | 35.4 | 0.00 | 0.00 | 0.00 | 49 | 101.3 |
| 20260507113600 | 18 | 221 | 11.3 | 35.4 | 0.00 | 0.00 | 0.00 | 49 | 101.3 |
| 20260507113454 | 18 | 221 | 11.3 | 35.4 | 0.00 | 0.00 | 0.00 | 49 | 101.3 |
| 20260507113348 | 18 | 221 | 11.3 | 35.4 | 0.00 | 0.00 | 0.00 | 49 | 101.3 |
| 20260507113241 | 18 | 215 | 4.8 | 17.7 | 0.00 | 0.00 | 0.00 | 48 | 101.3 |
| 20260507113135 | 18 | 215 | 4.8 | 17.7 | 0.00 | 0.00 | 0.00 | 48 | 101.3 |
| 20260507113024 | 18 | 215 | 4.8 | 17.7 | 0.00 | 0.00 | 0.00 | 48 | 101.3 |
| 20260507112918 | 18 | 215 | 4.8 | 17.7 | 0.00 | 0.00 | 0.00 | 48 | 101.3 |
| 20260507112811 | 18 | 215 | 4.8 | 17.7 | 0.00 | 0.00 | 0.00 | 48 | 101.3 |
| 20260507112705 | 18 | 215 | 4.8 | 17.7 | 0.00 | 0.00 | 0.00 | 48 | 101.3 |
| 20260507112559 | 18 | 215 | 4.8 | 17.7 | 0.00 | 0.00 | 0.00 | 48 | 101.3 |
| 20260507112453 | 18 | 215 | 4.8 | 17.7 | 0.00 | 0.00 | 0.00 | 48 | 101.3 |
| 20260507112346 | 18 | 215 | 4.8 | 17.7 | 0.00 | 0.00 | 0.00 | 48 | 101.3 |
| 20260507112240 | 18 | 215 | 4.8 | 17.7 | 0.00 | 0.00 | 0.00 | 48 | 101.3 |
| 20260507112134 | 18 | 215 | 4.8 | 17.7 | 0.00 | 0.00 | 0.00 | 48 | 101.3 |
| 20260507112028 | 18 | 215 | 4.8 | 17.7 | 0.00 | 0.00 | 0.00 | 48 | 101.3 |
| 20260507111922 | 18 | 175 | 4.8 | 14.5 | 0.00 | 0.00 | 0.00 | 48 | 101.3 |
| 20260507111815 | 18 | 175 | 4.8 | 14.5 | 0.00 | 0.00 | 0.00 | 48 | 101.3 |
| 20260507111709 | 18 | 175 | 4.8 | 14.5 | 0.00 | 0.00 | 0.00 | 48 | 101.3 |
| 20260507111603 | 18 | 175 | 4.8 | 14.5 | 0.00 | 0.00 | 0.00 | 48 | 101.3 |
| 20260507111455 | 18 | 175 | 4.8 | 14.5 | 0.00 | 0.00 | 0.00 | 48 | 101.3 |
| 20260507111349 | 18 | 175 | 4.8 | 14.5 | 0.00 | 0.00 | 0.00 | 48 | 101.3 |
| 20260507111243 | 18 | 175 | 4.8 | 14.5 | 0.00 | 0.00 | 0.00 | 48 | 101.3 |
| 20260507111135 | 18 | 175 | 4.8 | 14.5 | 0.00 | 0.00 | 0.00 | 48 | 101.3 |
| 20260507111029 | 18 | 175 | 4.8 | 14.5 | 0.00 | 0.00 | 0.00 | 49 | 101.3 |
| 20260507110923 | 18 | 175 | 4.8 | 14.5 | 0.00 | 0.00 | 0.00 | 52 | 101.2 |
| 20260507110817 | 18 | 175 | 4.8 | 14.5 | 0.00 | 0.00 | 0.00 | 52 | 101.2 |
| 20260507110710 | 18 | 175 | 4.8 | 14.5 | 0.00 | 0.00 | 0.00 | 49 | 101.3 |
| 20260507110604 | 18 | 175 | 4.8 | 14.5 | 0.00 | 0.00 | 0.00 | 52 | 101.2 |
| 20260507110457 | 18 | 175 | 4.8 | 14.5 | 0.00 | 0.00 | 0.00 | 52 | 101.2 |
| 20260507110351 | 18 | 175 | 4.8 | 14.5 | 0.00 | 0.00 | 0.00 | 52 | 101.2 |
| 20260507110245 | 18 | 175 | 4.8 | 14.5 | 0.00 | 0.00 | 0.00 | 52 | 101.2 |
| 20260507110139 | 18 | 175 | 4.8 | 14.5 | 0.00 | 0.00 | 0.00 | 52 | 101.2 |
| 20260507110032 | 18 | 328 | 4.8 | 4.8 | 0.00 | 0.00 | 0.00 | 60 | 101.2 |
| 20260507105925 | 18 | 328 | 4.8 | 4.8 | 0.00 | 0.00 | 0.00 | 60 | 101.2 |
| 20260507105819 | 18 | 328 | 4.8 | 4.8 | 0.00 | 0.00 | 0.00 | 60 | 101.2 |
| 20260507105712 | 18 | 328 | 4.8 | 4.8 | 0.00 | 0.00 | 0.00 | 60 | 101.2 |
| 20260507105606 | 18 | 328 | 4.8 | 4.8 | 0.00 | 0.00 | 0.00 | 60 | 101.2 |
| 20260507105500 | 18 | 328 | 4.8 | 4.8 | 0.00 | 0.00 | 0.00 | 60 | 101.2 |
| 20260507105354 | 18 | 328 | 4.8 | 4.8 | 0.00 | 0.00 | 0.00 | 60 | 101.2 |
| 20260507105248 | 18 | 328 | 4.8 | 4.8 | 0.00 | 0.00 | 0.00 | 60 | 101.2 |
| 20260507105141 | 18 | 328 | 4.8 | 4.8 | 0.00 | 0.00 | 0.00 | 60 | 101.2 |
| 20260507105035 | 18 | 328 | 4.8 | 4.8 | 0.00 | 0.00 | 0.00 | 60 | 101.2 |
| 20260507104929 | 18 | 328 | 4.8 | 4.8 | 0.00 | 0.00 | 0.00 | 60 | 101.2 |
| 20260507104823 | 18 | 328 | 4.8 | 4.8 | 0.00 | 0.00 | 0.00 | 60 | 101.2 |
| 20260507104716 | 18 | 328 | 4.8 | 4.8 | 0.00 | 0.00 | 0.00 | 60 | 101.2 |
| 20260507104610 | 18 | 328 | 4.8 | 4.8 | 0.00 | 0.00 | 0.00 | 60 | 101.2 |
| 20260507104505 | 18 | 328 | 4.8 | 4.8 | 0.00 | 0.00 | 0.00 | 60 | 101.2 |
| 20260507104358 | 18 | 328 | 4.8 | 4.8 | 0.00 | 0.00 | 0.00 | 60 | 101.2 |
| 20260507104252 | 18 | 328 | 4.8 | 4.8 | 0.00 | 0.00 | 0.00 | 60 | 101.2 |
| 20260507104145 | 18 | 328 | 4.8 | 4.8 | 0.00 | 0.00 | 0.00 | 60 | 101.2 |
| 20260507104039 | 18 | 328 | 4.8 | 4.8 | 0.00 | 0.00 | 0.00 | 60 | 101.2 |
| 20260507103933 | 18 | 328 | 4.8 | 4.8 | 0.00 | 0.00 | 0.00 | 60 | 101.2 |
| 20260507103827 | 18 | 328 | 4.8 | 4.8 | 0.00 | 0.00 | 0.00 | 60 | 101.2 |
| 20260507103721 | 18 | 328 | 4.8 | 4.8 | 0.00 | 0.00 | 0.00 | 60 | 101.2 |
| 20260507103614 | 18 | 328 | 4.8 | 4.8 | 0.00 | 0.00 | 0.00 | 59 | 101.4 |
| 20260507103508 | 18 | 328 | 4.8 | 4.8 | 0.00 | 0.00 | 0.00 | 59 | 101.4 |
| 20260507103402 | 18 | 328 | 4.8 | 4.8 | 0.00 | 0.00 | 0.00 | 59 | 101.4 |
| 20260507103256 | 18 | 328 | 4.8 | 4.8 | 0.00 | 0.00 | 0.00 | 59 | 101.4 |
| 20260507103043 | 18 | 328 | 4.8 | 4.8 | 0.00 | 0.00 | 0.00 | 59 | 101.4 |
| 20260507102937 | 18 | 328 | 4.8 | 4.8 | 0.00 | 0.00 | 0.00 | 59 | 101.4 |
| 20260507102831 | 18 | 328 | 4.8 | 4.8 | 0.00 | 0.00 | 0.00 | 59 | 101.4 |
| 20260507102725 | 18 | 328 | 4.8 | 4.8 | 0.00 | 0.00 | 0.00 | 59 | 101.4 |
| 20260507102619 | 18 | 328 | 4.8 | 4.8 | 0.00 | 0.00 | 0.00 | 59 | 101.4 |
| 20260507102512 | 18 | 328 | 4.8 | 6.4 | 0.00 | 0.00 | 0.00 | 58 | 101.3 |
| 20260507102406 | 18 | 328 | 4.8 | 6.4 | 0.00 | 0.00 | 0.00 | 58 | 101.3 |
| 20260507102300 | 18 | 328 | 4.8 | 6.4 | 0.00 | 0.00 | 0.00 | 58 | 101.3 |
| 20260507102154 | 18 | 328 | 4.8 | 6.4 | 0.00 | 0.00 | 0.00 | 58 | 101.3 |
| 20260507102047 | 18 | 328 | 4.8 | 6.4 | 0.00 | 0.00 | 0.00 | 58 | 101.3 |
| 20260507101941 | 18 | 328 | 4.8 | 6.4 | 0.00 | 0.00 | 0.00 | 58 | 101.4 |
| 20260507101835 | 18 | 328 | 4.8 | 8.0 | 0.00 | 0.00 | 0.00 | 57 | 101.3 |
| 20260507101729 | 18 | 328 | 4.8 | 8.0 | 0.00 | 0.00 | 0.00 | 57 | 101.3 |
| 20260507101623 | 18 | 328 | 4.8 | 8.0 | 0.00 | 0.00 | 0.00 | 57 | 101.3 |
| 20260507101517 | 18 | 328 | 4.8 | 8.0 | 0.00 | 0.00 | 0.00 | 57 | 101.3 |
| 20260507101410 | 18 | 328 | 4.8 | 8.0 | 0.00 | 0.00 | 0.00 | 57 | 101.3 |
| 20260507101304 | 18 | 328 | 4.8 | 8.0 | 0.00 | 0.00 | 0.00 | 57 | 101.3 |
| 20260507101157 | 18 | 328 | 4.8 | 8.0 | 0.00 | 0.00 | 0.00 | 57 | 101.3 |
| 20260507101051 | 18 | 328 | 4.8 | 8.0 | 0.00 | 0.00 | 0.00 | 57 | 101.3 |
| 20260507100945 | 18 | 328 | 4.8 | 8.0 | 0.00 | 0.00 | 0.00 | 57 | 101.3 |
| 20260507100839 | 18 | 328 | 4.8 | 8.0 | 0.00 | 0.00 | 0.00 | 57 | 101.3 |
| 20260507100732 | 18 | 328 | 4.8 | 8.0 | 0.00 | 0.00 | 0.00 | 54 | 101.3 |
| 20260507100626 | 18 | 328 | 4.8 | 8.0 | 0.00 | 0.00 | 0.00 | 54 | 101.3 |
| 20260507100519 | 18 | 328 | 4.8 | 8.0 | 0.00 | 0.00 | 0.00 | 54 | 101.3 |
| 20260507100413 | 18 | 328 | 4.8 | 8.0 | 0.00 | 0.00 | 0.00 | 54 | 101.3 |
| 20260507100307 | 18 | 328 | 4.8 | 8.0 | 0.00 | 0.00 | 0.00 | 54 | 101.3 |
| 20260507100201 | 18 | 297 | 4.8 | 4.8 | 0.00 | 0.00 | 0.00 | 48 | 101.3 |
| 20260507100055 | 18 | 297 | 4.8 | 4.8 | 0.00 | 0.00 | 0.00 | 48 | 101.3 |
| 20260507095948 | 18 | 297 | 4.8 | 4.8 | 0.00 | 0.00 | 0.00 | 48 | 101.3 |
| 20260507095842 | 18 | 297 | 4.8 | 4.8 | 0.00 | 0.00 | 0.00 | 48 | 101.3 |
| 20260507095735 | 18 | 297 | 4.8 | 4.8 | 0.00 | 0.00 | 0.00 | 48 | 101.3 |
| 20260507095629 | 18 | 297 | 4.8 | 4.8 | 0.00 | 0.00 | 0.00 | 48 | 101.3 |
| 20260507095522 | 18 | 297 | 4.8 | 4.8 | 0.00 | 0.00 | 0.00 | 48 | 101.3 |
| 20260507095416 | 18 | 297 | 4.8 | 4.8 | 0.00 | 0.00 | 0.00 | 48 | 101.3 |
| 20260507095310 | 18 | 297 | 4.8 | 4.8 | 0.00 | 0.00 | 0.00 | 48 | 101.3 |
| 20260507095204 | 18 | 297 | 4.8 | 4.8 | 0.00 | 0.00 | 0.00 | 48 | 101.3 |
| 20260507095057 | 18 | 297 | 4.8 | 4.8 | 0.00 | 0.00 | 0.00 | 49 | 101.3 |
| 20260507094951 | 18 | 297 | 4.8 | 4.8 | 0.00 | 0.00 | 0.00 | 48 | 101.3 |
| 20260507094845 | 18 | 297 | 4.8 | 4.8 | 0.00 | 0.00 | 0.00 | 48 | 101.3 |
| 20260507094739 | 18 | 297 | 4.8 | 4.8 | 0.00 | 0.00 | 0.00 | 49 | 101.3 |
| 20260507094632 | 18 | 297 | 4.8 | 4.8 | 0.00 | 0.00 | 0.00 | 49 | 101.3 |
| 20260507094526 | 18 | 297 | 4.8 | 4.8 | 0.00 | 0.00 | 0.00 | 49 | 101.3 |
| 20260507094420 | 18 | 297 | 4.8 | 4.8 | 0.00 | 0.00 | 0.00 | 49 | 101.3 |
| 20260507094314 | 18 | 297 | 4.8 | 4.8 | 0.00 | 0.00 | 0.00 | 49 | 101.3 |
| 20260507094208 | 18 | 297 | 4.8 | 4.8 | 0.00 | 0.00 | 0.00 | 49 | 101.3 |
| 20260507094101 | 18 | 297 | 4.8 | 4.8 | 0.00 | 0.00 | 0.00 | 49 | 101.3 |
| 20260507093955 | 18 | 297 | 4.8 | 4.8 | 0.00 | 0.00 | 0.00 | 49 | 101.3 |
| 20260507093849 | 18 | 297 | 4.8 | 4.8 | 0.00 | 0.00 | 0.00 | 49 | 101.3 |
| 20260507093743 | 18 | 297 | 4.8 | 4.8 | 0.00 | 0.00 | 0.00 | 49 | 101.3 |
| 20260507093636 | 18 | 297 | 4.8 | 4.8 | 0.00 | 0.00 | 0.00 | 49 | 101.2 |
| 20260507093530 | 18 | 297 | 4.8 | 4.8 | 0.00 | 0.00 | 0.00 | 49 | 101.2 |
| 20260507093424 | 18 | 297 | 4.8 | 4.8 | 0.00 | 0.00 | 0.00 | 49 | 101.2 |
| 20260507093318 | 18 | 297 | 4.8 | 4.8 | 0.00 | 0.00 | 0.00 | 49 | 101.2 |
| 20260507093212 | 18 | 297 | 4.8 | 4.8 | 0.00 | 0.00 | 0.00 | 49 | 101.2 |
| 20260507093105 | 18 | 297 | 4.8 | 4.8 | 0.00 | 0.00 | 0.00 | 49 | 101.2 |
| 20260507092959 | 17 | 297 | 4.8 | 4.8 | 0.00 | 0.00 | 0.00 | 50 | 101.2 |
| 20260507092853 | 17 | 297 | 4.8 | 4.8 | 0.00 | 0.00 | 0.00 | 50 | 101.2 |
| 20260507092747 | 17 | 297 | 4.8 | 4.8 | 0.00 | 0.00 | 0.00 | 50 | 101.2 |
| 20260507092641 | 17 | 297 | 4.8 | 4.8 | 0.00 | 0.00 | 0.00 | 50 | 101.2 |
| 20260507092534 | 17 | 297 | 4.8 | 4.8 | 0.00 | 0.00 | 0.00 | 50 | 101.2 |
| 20260507092428 | 17 | 297 | 4.8 | 4.8 | 0.00 | 0.00 | 0.00 | 50 | 101.2 |
| 20260507092322 | 17 | 297 | 4.8 | 4.8 | 0.00 | 0.00 | 0.00 | 50 | 101.2 |
| 20260507092216 | 17 | 297 | 4.8 | 4.8 | 0.00 | 0.00 | 0.00 | 50 | 101.2 |
| 20260507092109 | 17 | 297 | 4.8 | 4.8 | 0.00 | 0.00 | 0.00 | 50 | 101.2 |
| 20260507092003 | 17 | 297 | 4.8 | 4.8 | 0.00 | 0.00 | 0.00 | 50 | 101.2 |
| 20260507091857 | 17 | 297 | 4.8 | 6.4 | 0.00 | 0.00 | 0.00 | 50 | 101.2 |
| 20260507091750 | 17 | 297 | 4.8 | 6.4 | 0.00 | 0.00 | 0.00 | 50 | 101.2 |
| 20260507091644 | 17 | 297 | 4.8 | 6.4 | 0.00 | 0.00 | 0.00 | 50 | 101.2 |
| 20260507091538 | 17 | 297 | 4.8 | 6.4 | 0.00 | 0.00 | 0.00 | 50 | 101.2 |
| 20260507091432 | 17 | 297 | 4.8 | 6.4 | 0.00 | 0.00 | 0.00 | 50 | 101.2 |
| 20260507091325 | 17 | 297 | 4.8 | 6.4 | 0.00 | 0.00 | 0.00 | 50 | 101.2 |
| 20260507091219 | 17 | 297 | 4.8 | 6.4 | 0.00 | 0.00 | 0.00 | 50 | 101.2 |
| 20260507091113 | 17 | 297 | 4.8 | 6.4 | 0.00 | 0.00 | 0.00 | 50 | 101.2 |
| 20260507091007 | 17 | 297 | 4.8 | 6.4 | 0.00 | 0.00 | 0.00 | 50 | 101.2 |
| 20260507090901 | 17 | 297 | 4.8 | 6.4 | 0.00 | 0.00 | 0.00 | 50 | 101.2 |
| 20260507090754 | 17 | 297 | 4.8 | 6.4 | 0.00 | 0.00 | 0.00 | 50 | 101.3 |
| 20260507090647 | 17 | 297 | 4.8 | 6.4 | 0.00 | 0.00 | 0.00 | 50 | 101.3 |
| 20260507090541 | 17 | 297 | 4.8 | 6.4 | 0.00 | 0.00 | 0.00 | 50 | 101.3 |
| 20260507090435 | 17 | 297 | 4.8 | 6.4 | 0.00 | 0.00 | 0.00 | 50 | 101.3 |
| 20260507090323 | 17 | 297 | 4.8 | 6.4 | 0.00 | 0.00 | 0.00 | 50 | 101.3 |
| 20260507090217 | 17 | 297 | 4.8 | 6.4 | 0.00 | 0.00 | 0.00 | 50 | 101.3 |
| 20260507090111 | 16 | 200 | 4.8 | 0.0 | 0.00 | 0.00 | 0.00 | 74 | 101.3 |
| 20260507090005 | 16 | 200 | 4.8 | 0.0 | 0.00 | 0.00 | 0.00 | 74 | 101.3 |
| 20260507085858 | 16 | 200 | 4.8 | 0.0 | 0.00 | 0.00 | 0.00 | 74 | 101.3 |
| 20260507085752 | 16 | 200 | 4.8 | 0.0 | 0.00 | 0.00 | 0.00 | 74 | 101.3 |
| 20260507085646 | 16 | 200 | 4.8 | 0.0 | 0.00 | 0.00 | 0.00 | 74 | 101.3 |
| 20260507085540 | 16 | 200 | 4.8 | 0.0 | 0.00 | 0.00 | 0.00 | 74 | 101.3 |
| 20260507085433 | 16 | 200 | 4.8 | 0.0 | 0.00 | 0.00 | 0.00 | 74 | 101.3 |
| 20260507085327 | 15 | 200 | 4.8 | 0.0 | 0.00 | 0.00 | 0.00 | 75 | 101.3 |
| 20260507085221 | 15 | 200 | 4.8 | 0.0 | 0.00 | 0.00 | 0.00 | 75 | 101.3 |
| 20260507085115 | 15 | 200 | 4.8 | 0.0 | 0.00 | 0.00 | 0.00 | 75 | 101.3 |
| 20260507085008 | 15 | 200 | 4.8 | 0.0 | 0.00 | 0.00 | 0.00 | 75 | 101.3 |
| 20260507084902 | 15 | 200 | 4.8 | 0.0 | 0.00 | 0.00 | 0.00 | 75 | 101.3 |
| 20260507084756 | 15 | 200 | 4.8 | 0.0 | 0.00 | 0.00 | 0.00 | 75 | 101.3 |
| 20260507084650 | 15 | 200 | 4.8 | 0.0 | 0.00 | 0.00 | 0.00 | 75 | 101.3 |
| 20260507084543 | 15 | 200 | 4.8 | 0.0 | 0.00 | 0.00 | 0.00 | 75 | 101.3 |
| 20260507084437 | 15 | 200 | 4.8 | 0.0 | 0.00 | 0.00 | 0.00 | 75 | 101.3 |
| 20260507084331 | 15 | 200 | 4.8 | 0.0 | 0.00 | 0.00 | 0.00 | 75 | 101.3 |
| 20260507084225 | 15 | 200 | 4.8 | 0.0 | 0.00 | 0.00 | 0.00 | 74 | 101.3 |
| 20260507084119 | 15 | 200 | 4.8 | 0.0 | 0.00 | 0.00 | 0.00 | 74 | 101.3 |
| 20260507084013 | 15 | 200 | 4.8 | 0.0 | 0.00 | 0.00 | 0.00 | 74 | 101.3 |
| 20260507083906 | 15 | 200 | 4.8 | 0.0 | 0.00 | 0.00 | 0.00 | 74 | 101.3 |
| 20260507083800 | 15 | 200 | 4.8 | 0.0 | 0.00 | 0.00 | 0.00 | 74 | 101.3 |
| 20260507083654 | 15 | 200 | 4.8 | 0.0 | 0.00 | 0.00 | 0.00 | 74 | 101.3 |
| 20260507083548 | 15 | 200 | 4.8 | 0.0 | 0.00 | 0.00 | 0.00 | 74 | 101.3 |
| 20260507083441 | 15 | 200 | 4.8 | 0.0 | 0.00 | 0.00 | 0.00 | 74 | 101.3 |
| 20260507083335 | 15 | 200 | 4.8 | 0.0 | 0.00 | 0.00 | 0.00 | 74 | 101.3 |
| 20260507083229 | 15 | 200 | 4.8 | 0.0 | 0.00 | 0.00 | 0.00 | 74 | 101.3 |
| 20260507083123 | 15 | 200 | 4.8 | 0.0 | 0.00 | 0.00 | 0.00 | 77 | 101.3 |
| 20260507083016 | 15 | 200 | 4.8 | 0.0 | 0.00 | 0.00 | 0.00 | 77 | 101.3 |
| 20260507082910 | 15 | 200 | 4.8 | 0.0 | 0.00 | 0.00 | 0.00 | 77 | 101.3 |
| 20260507082804 | 15 | 200 | 4.8 | 0.0 | 0.00 | 0.00 | 0.00 | 77 | 101.3 |
| 20260507082658 | 15 | 200 | 4.8 | 0.0 | 0.00 | 0.00 | 0.00 | 75 | 101.3 |
| 20260507082552 | 15 | 200 | 4.8 | 0.0 | 0.00 | 0.00 | 0.00 | 75 | 101.3 |
| 20260507082445 | 15 | 200 | 4.8 | 0.0 | 0.00 | 0.00 | 0.00 | 75 | 101.3 |
| 20260507082339 | 15 | 200 | 4.8 | 0.0 | 0.00 | 0.00 | 0.00 | 75 | 101.3 |
| 20260507082233 | 15 | 200 | 4.8 | 0.0 | 0.00 | 0.00 | 0.00 | 75 | 101.3 |
| 20260507082127 | 15 | 200 | 4.8 | 0.0 | 0.00 | 0.00 | 0.00 | 75 | 101.3 |
| 20260507082020 | 15 | 200 | 4.8 | 0.0 | 0.00 | 0.00 | 0.00 | 75 | 101.3 |
| 20260507081914 | 15 | 200 | 4.8 | 0.0 | 0.00 | 0.00 | 0.00 | 75 | 101.3 |
| 20260507081808 | 15 | 200 | 4.8 | 0.0 | 0.00 | 0.00 | 0.00 | 75 | 101.3 |
| 20260507081702 | 15 | 200 | 4.8 | 0.0 | 0.00 | 0.00 | 0.00 | 75 | 101.3 |
| 20260507081556 | 14 | 200 | 4.8 | 0.0 | 0.00 | 0.00 | 0.00 | 75 | 101.3 |
| 20260507081449 | 14 | 200 | 4.8 | 0.0 | 0.00 | 0.00 | 0.00 | 75 | 101.3 |
| 20260507081343 | 14 | 200 | 4.8 | 0.0 | 0.00 | 0.00 | 0.00 | 75 | 101.3 |
| 20260507081237 | 14 | 200 | 4.8 | 0.0 | 0.00 | 0.00 | 0.00 | 75 | 101.3 |
| 20260507081131 | 14 | 200 | 4.8 | 0.0 | 0.00 | 0.00 | 0.00 | 75 | 101.3 |
| 20260507081025 | 14 | 200 | 4.8 | 0.0 | 0.00 | 0.00 | 0.00 | 75 | 101.3 |
| 20260507080918 | 14 | 200 | 4.8 | 0.0 | 0.00 | 0.00 | 0.00 | 75 | 101.3 |
| 20260507080812 | 14 | 200 | 4.8 | 0.0 | 0.00 | 0.00 | 0.00 | 75 | 101.3 |
| 20260507080706 | 14 | 200 | 4.8 | 0.0 | 0.00 | 0.00 | 0.00 | 75 | 101.3 |
| 20260507080600 | 14 | 200 | 4.8 | 0.0 | 0.00 | 0.00 | 0.00 | 75 | 101.3 |
| 20260507080454 | 13 | 200 | 4.8 | 0.0 | 0.00 | 0.00 | 0.00 | 75 | 101.3 |
| 20260507080347 | 13 | 200 | 4.8 | 0.0 | 0.00 | 0.00 | 0.00 | 75 | 101.3 |
| 20260507080241 | 13 | 200 | 4.8 | 0.0 | 0.00 | 0.00 | 0.00 | 75 | 101.3 |
| 20260507080135 | 13 | 200 | 4.8 | 0.0 | 0.00 | 0.00 | 0.00 | 75 | 101.3 |
| 20260507080024 | 13 | 200 | 4.8 | 0.0 | 0.00 | 0.00 | 0.00 | 75 | 101.3 |
| 20260507075917 | 13 | 200 | 4.8 | 0.0 | 0.00 | 0.00 | 0.00 | 75 | 101.3 |
| 20260507075558 | 13 | 200 | 4.8 | 0.0 | 0.00 | 0.00 | 0.00 | 75 | 101.3 |
| 20260507075452 | 13 | 200 | 4.8 | 0.0 | 0.00 | 0.00 | 0.00 | 75 | 101.3 |
| 20260507075346 | 13 | 200 | 4.8 | 0.0 | 0.00 | 0.00 | 0.00 | 75 | 101.3 |
| 20260507075240 | 13 | 200 | 4.8 | 0.0 | 0.00 | 0.00 | 0.00 | 75 | 101.3 |
| 20260507075134 | 13 | 200 | 4.8 | 0.0 | 0.00 | 0.00 | 0.00 | 75 | 101.3 |
| 20260507075027 | 13 | 200 | 4.8 | 0.0 | 0.00 | 0.00 | 0.00 | 75 | 101.3 |
| 20260507074921 | 13 | 200 | 4.8 | 0.0 | 0.00 | 0.00 | 0.00 | 74 | 101.3 |
| 20260507074815 | 13 | 200 | 4.8 | 0.0 | 0.00 | 0.00 | 0.00 | 74 | 101.3 |
| 20260507074709 | 13 | 200 | 4.8 | 0.0 | 0.00 | 0.00 | 0.00 | 74 | 101.3 |
| 20260507074602 | 13 | 200 | 4.8 | 0.0 | 0.00 | 0.00 | 0.00 | 74 | 101.3 |
| 20260507074456 | 13 | 200 | 4.8 | 0.0 | 0.00 | 0.00 | 0.00 | 74 | 101.3 |
| 20260507074350 | 13 | 200 | 4.8 | 0.0 | 0.00 | 0.00 | 0.00 | 74 | 101.3 |
| 20260507074243 | 13 | 200 | 4.8 | 0.0 | 0.00 | 0.00 | 0.00 | 74 | 101.3 |
| 20260507074137 | 13 | 200 | 4.8 | 0.0 | 0.00 | 0.00 | 0.00 | 74 | 101.3 |
| 20260507074031 | 13 | 200 | 4.8 | 0.0 | 0.00 | 0.00 | 0.00 | 72 | 101.3 |
| 20260507073925 | 13 | 200 | 4.8 | 0.0 | 0.00 | 0.00 | 0.00 | 72 | 101.3 |
| 20260507073819 | 13 | 200 | 4.8 | 0.0 | 0.00 | 0.00 | 0.00 | 72 | 101.3 |
| 20260507073712 | 13 | 200 | 4.8 | 0.0 | 0.00 | 0.00 | 0.00 | 72 | 101.3 |
| 20260507073606 | 13 | 200 | 4.8 | 0.0 | 0.00 | 0.00 | 0.00 | 72 | 101.3 |
| 20260507073500 | 13 | 200 | 4.8 | 0.0 | 0.00 | 0.00 | 0.00 | 72 | 101.3 |
| 20260507073354 | 13 | 200 | 4.8 | 0.0 | 0.00 | 0.00 | 0.00 | 72 | 101.3 |
| 20260507073248 | 13 | 200 | 4.8 | 0.0 | 0.00 | 0.00 | 0.00 | 72 | 101.3 |
| 20260507073141 | 13 | 200 | 4.8 | 0.0 | 0.00 | 0.00 | 0.00 | 72 | 101.3 |
| 20260507073035 | 13 | 200 | 4.8 | 0.0 | 0.00 | 0.00 | 0.00 | 72 | 101.3 |
| 20260507072929 | 13 | 200 | 4.8 | 0.0 | 0.00 | 0.00 | 0.00 | 67 | 101.3 |
| 20260507072823 | 13 | 200 | 4.8 | 0.0 | 0.00 | 0.00 | 0.00 | 67 | 101.3 |
| 20260507072717 | 13 | 200 | 4.8 | 0.0 | 0.00 | 0.00 | 0.00 | 67 | 101.3 |
| 20260507072610 | 13 | 200 | 4.8 | 0.0 | 0.00 | 0.00 | 0.00 | 67 | 101.3 |
| 20260507072504 | 13 | 200 | 4.8 | 0.0 | 0.00 | 0.00 | 0.00 | 67 | 101.3 |
| 20260507072358 | 13 | 200 | 4.8 | 0.0 | 0.00 | 0.00 | 0.00 | 67 | 101.3 |
| 20260507072252 | 13 | 200 | 4.8 | 0.0 | 0.00 | 0.00 | 0.00 | 67 | 101.3 |
| 20260507072145 | 13 | 200 | 4.8 | 0.0 | 0.00 | 0.00 | 0.00 | 67 | 101.3 |
| 20260507072039 | 13 | 200 | 4.8 | 0.0 | 0.00 | 0.00 | 0.00 | 67 | 101.3 |
| 20260507071933 | 13 | 200 | 4.8 | 0.0 | 0.00 | 0.00 | 0.00 | 67 | 101.3 |
| 20260507071827 | 13 | 200 | 4.8 | 0.0 | 0.00 | 0.00 | 0.00 | 65 | 101.4 |
| 20260507071721 | 13 | 200 | 4.8 | 0.0 | 0.00 | 0.00 | 0.00 | 65 | 101.4 |
| 20260507071614 | 13 | 200 | 4.8 | 0.0 | 0.00 | 0.00 | 0.00 | 65 | 101.4 |
| 20260507071508 | 13 | 200 | 4.8 | 0.0 | 0.00 | 0.00 | 0.00 | 65 | 101.4 |
| 20260507071402 | 13 | 200 | 4.8 | 0.0 | 0.00 | 0.00 | 0.00 | 65 | 101.4 |
| 20260507071256 | 13 | 200 | 4.8 | 0.0 | 0.00 | 0.00 | 0.00 | 65 | 101.4 |
| 20260507071150 | 13 | 200 | 4.8 | 0.0 | 0.00 | 0.00 | 0.00 | 65 | 101.4 |
| 20260507071043 | 13 | 200 | 4.8 | 0.0 | 0.00 | 0.00 | 0.00 | 65 | 101.4 |
| 20260507070937 | 13 | 200 | 4.8 | 0.0 | 0.00 | 0.00 | 0.00 | 65 | 101.4 |
| 20260507070831 | 13 | 200 | 4.8 | 0.0 | 0.00 | 0.00 | 0.00 | 65 | 101.4 |
| 20260507070725 | 13 | 200 | 4.8 | 0.0 | 0.00 | 0.00 | 0.00 | 66 | 101.4 |
| 20260507070618 | 13 | 200 | 4.8 | 0.0 | 0.00 | 0.00 | 0.00 | 67 | 101.3 |
| 20260507070512 | 13 | 200 | 4.8 | 0.0 | 0.00 | 0.00 | 0.00 | 67 | 101.3 |
| 20260507070406 | 13 | 200 | 4.8 | 0.0 | 0.00 | 0.00 | 0.00 | 67 | 101.3 |
| 20260507070300 | 13 | 200 | 4.8 | 0.0 | 0.00 | 0.00 | 0.00 | 67 | 101.3 |
| 20260507070154 | 13 | 200 | 4.8 | 0.0 | 0.00 | 0.00 | 0.00 | 71 | 101.4 |
| 20260507070047 | 13 | 200 | 4.8 | 0.0 | 0.00 | 0.00 | 0.00 | 71 | 101.4 |
| 20260507065941 | 13 | 200 | 4.8 | 0.0 | 0.00 | 0.00 | 0.00 | 71 | 101.4 |
| 20260507065835 | 13 | 200 | 4.8 | 0.0 | 0.00 | 0.00 | 0.00 | 71 | 101.4 |
| 20260507065724 | 13 | 200 | 4.8 | 0.0 | 0.00 | 0.00 | 0.00 | 71 | 101.4 |
| 20260507065618 | 13 | 200 | 4.8 | 0.0 | 0.00 | 0.00 | 0.00 | 71 | 101.4 |
| 20260507065511 | 13 | 200 | 4.8 | 0.0 | 0.00 | 0.00 | 0.00 | 71 | 101.4 |
| 20260507065405 | 13 | 200 | 4.8 | 0.0 | 0.00 | 0.00 | 0.00 | 71 | 101.4 |
| 20260507065259 | 13 | 200 | 4.8 | 0.0 | 0.00 | 0.00 | 0.00 | 71 | 101.4 |
| 20260507065153 | 13 | 200 | 4.8 | 0.0 | 0.00 | 0.00 | 0.00 | 71 | 101.4 |
| 20260507065046 | 13 | 200 | 4.8 | 0.0 | 0.00 | 0.00 | 0.00 | 71 | 101.4 |
| 20260507064940 | 13 | 200 | 4.8 | 0.0 | 0.00 | 0.00 | 0.00 | 71 | 101.4 |
| 20260507064834 | 13 | 200 | 4.8 | 0.0 | 0.00 | 0.00 | 0.00 | 71 | 101.4 |
| 20260507064728 | 13 | 200 | 4.8 | 0.0 | 0.00 | 0.00 | 0.00 | 71 | 101.4 |
| 20260507064621 | 13 | 200 | 4.8 | 0.0 | 0.00 | 0.00 | 0.00 | 71 | 101.4 |
| 20260507064515 | 13 | 200 | 4.8 | 0.0 | 0.00 | 0.00 | 0.00 | 71 | 101.4 |
| 20260507064409 | 13 | 200 | 4.8 | 0.0 | 0.00 | 0.00 | 0.00 | 71 | 101.4 |
| 20260507064303 | 12 | 200 | 4.8 | 0.0 | 0.00 | 0.00 | 0.00 | 72 | 101.4 |
| 20260507064157 | 12 | 200 | 4.8 | 0.0 | 0.00 | 0.00 | 0.00 | 72 | 101.4 |
| 20260507064050 | 12 | 200 | 4.8 | 0.0 | 0.00 | 0.00 | 0.00 | 72 | 101.4 |
| 20260507063944 | 12 | 200 | 4.8 | 0.0 | 0.00 | 0.00 | 0.00 | 72 | 101.4 |
| 20260507063838 | 12 | 200 | 4.8 | 0.0 | 0.00 | 0.00 | 0.00 | 72 | 101.4 |
| 20260507063732 | 12 | 200 | 4.8 | 0.0 | 0.00 | 0.00 | 0.00 | 72 | 101.4 |
| 20260507063625 | 12 | 200 | 4.8 | 0.0 | 0.00 | 0.00 | 0.00 | 72 | 101.4 |
| 20260507063519 | 12 | 200 | 4.8 | 0.0 | 0.00 | 0.00 | 0.00 | 72 | 101.4 |
| 20260507063413 | 12 | 200 | 4.8 | 0.0 | 0.00 | 0.00 | 0.00 | 72 | 101.4 |
| 20260507063306 | 12 | 200 | 4.8 | 0.0 | 0.00 | 0.00 | 0.00 | 72 | 101.4 |
| 20260507063200 | 12 | 200 | 4.8 | 0.0 | 0.00 | 0.00 | 0.00 | 73 | 101.3 |
| 20260507063054 | 12 | 200 | 4.8 | 0.0 | 0.00 | 0.00 | 0.00 | 73 | 101.3 |
| 20260507062948 | 12 | 200 | 4.8 | 0.0 | 0.00 | 0.00 | 0.00 | 73 | 101.3 |
| 20260507062842 | 12 | 200 | 4.8 | 0.0 | 0.00 | 0.00 | 0.00 | 73 | 101.3 |
| 20260507062736 | 12 | 200 | 4.8 | 0.0 | 0.00 | 0.00 | 0.00 | 73 | 101.3 |
| 20260507062629 | 12 | 200 | 4.8 | 0.0 | 0.00 | 0.00 | 0.00 | 73 | 101.3 |
| 20260507062523 | 12 | 200 | 4.8 | 0.0 | 0.00 | 0.00 | 0.00 | 73 | 101.3 |
| 20260507062417 | 12 | 200 | 4.8 | 0.0 | 0.00 | 0.00 | 0.00 | 73 | 101.3 |
| 20260507062310 | 12 | 200 | 4.8 | 0.0 | 0.00 | 0.00 | 0.00 | 73 | 101.3 |
| 20260507062204 | 12 | 200 | 4.8 | 0.0 | 0.00 | 0.00 | 0.00 | 73 | 101.3 |
| 20260507062058 | 12 | 200 | 6.4 | 0.0 | 0.00 | 0.00 | 0.00 | 74 | 101.3 |
| 20260507061952 | 12 | 200 | 6.4 | 0.0 | 0.00 | 0.00 | 0.00 | 74 | 101.3 |
| 20260507061845 | 12 | 200 | 4.8 | 0.0 | 0.00 | 0.00 | 0.00 | 74 | 101.3 |
| 20260507061739 | 12 | 200 | 4.8 | 0.0 | 0.00 | 0.00 | 0.00 | 74 | 101.3 |
| 20260507061633 | 12 | 200 | 4.8 | 0.0 | 0.00 | 0.00 | 0.00 | 74 | 101.3 |
| 20260507061527 | 12 | 200 | 4.8 | 0.0 | 0.00 | 0.00 | 0.00 | 74 | 101.3 |
| 20260507061420 | 12 | 200 | 4.8 | 0.0 | 0.00 | 0.00 | 0.00 | 74 | 101.3 |
| 20260507061314 | 12 | 200 | 4.8 | 0.0 | 0.00 | 0.00 | 0.00 | 74 | 101.3 |
| 20260507061208 | 12 | 200 | 6.4 | 0.0 | 0.00 | 0.00 | 0.00 | 74 | 101.3 |
| 20260507061102 | 12 | 200 | 6.4 | 0.0 | 0.00 | 0.00 | 0.00 | 74 | 101.3 |
| 20260507060955 | 12 | 200 | 8.0 | 0.0 | 0.00 | 0.00 | 0.00 | 75 | 101.3 |
| 20260507060849 | 12 | 200 | 8.0 | 0.0 | 0.00 | 0.00 | 0.00 | 75 | 101.3 |
| 20260507060743 | 12 | 200 | 8.0 | 0.0 | 0.00 | 0.00 | 0.00 | 75 | 101.3 |
| 20260507060637 | 12 | 200 | 8.0 | 0.0 | 0.00 | 0.00 | 0.00 | 75 | 101.3 |
| 20260507060530 | 12 | 200 | 8.0 | 0.0 | 0.00 | 0.00 | 0.00 | 75 | 101.3 |
| 20260507060424 | 12 | 200 | 6.4 | 0.0 | 0.00 | 0.00 | 0.00 | 74 | 101.3 |
| 20260507060318 | 12 | 200 | 6.4 | 0.0 | 0.00 | 0.00 | 0.00 | 74 | 101.3 |
| 20260507060212 | 12 | 200 | 6.4 | 0.0 | 0.00 | 0.00 | 0.00 | 74 | 101.3 |
| 20260507060106 | 12 | 200 | 8.0 | 0.0 | 0.00 | 0.00 | 0.00 | 75 | 101.3 |
| 20260507055959 | 12 | 200 | 8.0 | 0.0 | 0.00 | 0.00 | 0.00 | 75 | 101.3 |
| 20260507055853 | 12 | 200 | 9.7 | 0.0 | 0.00 | 0.00 | 0.00 | 76 | 101.3 |
| 20260507055747 | 12 | 200 | 9.7 | 0.0 | 0.00 | 0.00 | 0.00 | 76 | 101.3 |
| 20260507055641 | 12 | 200 | 9.7 | 0.0 | 0.00 | 0.00 | 0.00 | 76 | 101.3 |
| 20260507055534 | 12 | 200 | 9.7 | 0.0 | 0.00 | 0.00 | 0.00 | 76 | 101.3 |
| 20260507055423 | 12 | 200 | 9.7 | 0.0 | 0.00 | 0.00 | 0.00 | 76 | 101.3 |
| 20260507055317 | 12 | 200 | 9.7 | 0.0 | 0.00 | 0.00 | 0.00 | 76 | 101.3 |
| 20260507055211 | 12 | 200 | 9.7 | 0.0 | 0.00 | 0.00 | 0.00 | 76 | 101.3 |
| 20260507055104 | 12 | 200 | 9.7 | 0.0 | 0.00 | 0.00 | 0.00 | 76 | 101.3 |
| 20260507054958 | 12 | 200 | 9.7 | 0.0 | 0.00 | 0.00 | 0.00 | 76 | 101.3 |
| 20260507054852 | 12 | 200 | 11.3 | 0.0 | 0.00 | 0.00 | 0.00 | 77 | 101.3 |
| 20260507054746 | 12 | 200 | 11.3 | 0.0 | 0.00 | 0.00 | 0.00 | 77 | 101.3 |
| 20260507054639 | 12 | 200 | 11.3 | 0.0 | 0.00 | 0.00 | 0.00 | 77 | 101.3 |
| 20260507054533 | 12 | 200 | 11.3 | 0.0 | 0.00 | 0.00 | 0.00 | 77 | 101.3 |
| 20260507054427 | 12 | 200 | 11.3 | 0.0 | 0.00 | 0.00 | 0.00 | 77 | 101.3 |
| 20260507054321 | 12 | 200 | 11.3 | 0.0 | 0.00 | 0.00 | 0.00 | 77 | 101.3 |
| 20260507054215 | 12 | 200 | 11.3 | 0.0 | 0.00 | 0.00 | 0.00 | 77 | 101.3 |
| 20260507054109 | 12 | 200 | 11.3 | 0.0 | 0.00 | 0.00 | 0.00 | 77 | 101.3 |
| 20260507054002 | 12 | 200 | 11.3 | 0.0 | 0.00 | 0.00 | 0.00 | 77 | 101.3 |
| 20260507053856 | 12 | 200 | 11.3 | 0.0 | 0.00 | 0.00 | 0.00 | 77 | 101.3 |
| 20260507053750 | 11 | 200 | 12.9 | 0.0 | 0.00 | 0.00 | 0.00 | 82 | 101.2 |
| 20260507053643 | 11 | 200 | 12.9 | 0.0 | 0.00 | 0.00 | 0.00 | 82 | 101.2 |
| 20260507053537 | 11 | 200 | 12.9 | 0.0 | 0.00 | 0.00 | 0.00 | 82 | 101.2 |
| 20260507053431 | 11 | 200 | 12.9 | 0.0 | 0.00 | 0.00 | 0.00 | 82 | 101.2 |
| 20260507053325 | 11 | 200 | 12.9 | 0.0 | 0.00 | 0.00 | 0.00 | 82 | 101.2 |
| 20260507053219 | 11 | 200 | 12.9 | 0.0 | 0.00 | 0.00 | 0.00 | 82 | 101.2 |
| 20260507053112 | 11 | 200 | 12.9 | 0.0 | 0.00 | 0.00 | 0.00 | 82 | 101.2 |
| 20260507053006 | 11 | 200 | 12.9 | 0.0 | 0.00 | 0.00 | 0.00 | 82 | 101.2 |
| 20260507052900 | 11 | 200 | 12.9 | 0.0 | 0.00 | 0.00 | 0.00 | 82 | 101.2 |
| 20260507052754 | 11 | 200 | 12.9 | 0.0 | 0.00 | 0.00 | 0.00 | 82 | 101.2 |
| 20260507052647 | 11 | 200 | 12.9 | 0.0 | 0.00 | 0.00 | 0.00 | 82 | 101.2 |
| 20260507052541 | 11 | 200 | 12.9 | 0.0 | 0.00 | 0.00 | 0.00 | 82 | 101.2 |
| 20260507052435 | 11 | 200 | 12.9 | 0.0 | 0.00 | 0.00 | 0.00 | 82 | 101.2 |
| 20260507052328 | 11 | 200 | 12.9 | 0.0 | 0.00 | 0.00 | 0.00 | 81 | 101.2 |
| 20260507052222 | 11 | 200 | 12.9 | 0.0 | 0.00 | 0.00 | 0.00 | 81 | 101.2 |
| 20260507052116 | 11 | 200 | 12.9 | 0.0 | 0.00 | 0.00 | 0.00 | 81 | 101.2 |
| 20260507052010 | 11 | 200 | 12.9 | 0.0 | 0.00 | 0.00 | 0.00 | 81 | 101.2 |
| 20260507051904 | 11 | 200 | 12.9 | 0.0 | 0.00 | 0.00 | 0.00 | 81 | 101.2 |
| 20260507051757 | 11 | 200 | 12.9 | 0.0 | 0.00 | 0.00 | 0.00 | 81 | 101.2 |
| 20260507051651 | 11 | 200 | 12.9 | 0.0 | 0.00 | 0.00 | 0.00 | 81 | 101.2 |
| 20260507051545 | 11 | 200 | 12.9 | 0.0 | 0.00 | 0.00 | 0.00 | 81 | 101.2 |
| 20260507051332 | 11 | 200 | 12.9 | 0.0 | 0.00 | 0.00 | 0.00 | 81 | 101.2 |
| 20260507051226 | 11 | 200 | 9.7 | 0.0 | 0.00 | 0.00 | 0.00 | 78 | 101.3 |
| 20260507051120 | 11 | 200 | 9.7 | 0.0 | 0.00 | 0.00 | 0.00 | 78 | 101.3 |
| 20260507051013 | 11 | 200 | 9.7 | 0.0 | 0.00 | 0.00 | 0.00 | 78 | 101.3 |
| 20260507050907 | 11 | 200 | 9.7 | 0.0 | 0.00 | 0.00 | 0.00 | 78 | 101.3 |
| 20260507050801 | 11 | 200 | 9.7 | 0.0 | 0.00 | 0.00 | 0.00 | 78 | 101.3 |
| 20260507050655 | 11 | 200 | 9.7 | 0.0 | 0.00 | 0.00 | 0.00 | 78 | 101.3 |
| 20260507050549 | 11 | 200 | 9.7 | 0.0 | 0.00 | 0.00 | 0.00 | 78 | 101.3 |
| 20260507050442 | 11 | 200 | 9.7 | 0.0 | 0.00 | 0.00 | 0.00 | 78 | 101.3 |
| 20260507050336 | 11 | 200 | 11.3 | 0.0 | 0.00 | 0.00 | 0.00 | 82 | 101.3 |
| 20260507050230 | 11 | 200 | 9.7 | 0.0 | 0.00 | 0.00 | 0.00 | 78 | 101.3 |
| 20260507050124 | 11 | 200 | 11.3 | 0.0 | 0.00 | 0.00 | 0.00 | 82 | 101.3 |
| 20260507050017 | 11 | 200 | 11.3 | 0.0 | 0.00 | 0.00 | 0.00 | 82 | 101.3 |
| 20260507045911 | 11 | 200 | 11.3 | 0.0 | 0.00 | 0.00 | 0.00 | 82 | 101.3 |
| 20260507045805 | 11 | 200 | 11.3 | 0.0 | 0.00 | 0.00 | 0.00 | 82 | 101.3 |
| 20260507045659 | 11 | 200 | 11.3 | 0.0 | 0.00 | 0.00 | 0.00 | 82 | 101.3 |
| 20260507045553 | 11 | 200 | 11.3 | 0.0 | 0.00 | 0.00 | 0.00 | 82 | 101.3 |
| 20260507045446 | 11 | 200 | 11.3 | 0.0 | 0.00 | 0.00 | 0.00 | 82 | 101.3 |
| 20260507045340 | 11 | 200 | 11.3 | 0.0 | 0.00 | 0.00 | 0.00 | 82 | 101.3 |
| 20260507045234 | 11 | 200 | 11.3 | 0.0 | 0.00 | 0.00 | 0.00 | 82 | 101.3 |
| 20260507045128 | 11 | 200 | 11.3 | 0.0 | 0.00 | 0.00 | 0.00 | 82 | 101.3 |
| 20260507045022 | 11 | 200 | 11.3 | 0.0 | 0.00 | 0.00 | 0.00 | 82 | 101.3 |
| 20260507044915 | 11 | 200 | 11.3 | 0.0 | 0.00 | 0.00 | 0.00 | 82 | 101.3 |
| 20260507044809 | 11 | 200 | 11.3 | 0.0 | 0.00 | 0.00 | 0.00 | 82 | 101.3 |
| 20260507044703 | 11 | 200 | 11.3 | 0.0 | 0.00 | 0.00 | 0.00 | 82 | 101.3 |
| 20260507044557 | 11 | 200 | 11.3 | 0.0 | 0.00 | 0.00 | 0.00 | 82 | 101.3 |
| 20260507044451 | 11 | 200 | 11.3 | 0.0 | 0.00 | 0.00 | 0.00 | 82 | 101.3 |
| 20260507044344 | 11 | 200 | 11.3 | 0.0 | 0.00 | 0.00 | 0.00 | 82 | 101.3 |
| 20260507044238 | 11 | 200 | 11.3 | 0.0 | 0.00 | 0.00 | 0.00 | 82 | 101.3 |
| 20260507044132 | 11 | 200 | 11.3 | 0.0 | 0.00 | 0.00 | 0.00 | 82 | 101.3 |
| 20260507044026 | 11 | 200 | 11.3 | 0.0 | 0.00 | 0.00 | 0.00 | 82 | 101.3 |
| 20260507043920 | 11 | 200 | 11.3 | 0.0 | 0.00 | 0.00 | 0.00 | 82 | 101.3 |
| 20260507043813 | 11 | 200 | 11.3 | 0.0 | 0.00 | 0.00 | 0.00 | 82 | 101.3 |
| 20260507043707 | 11 | 200 | 11.3 | 0.0 | 0.00 | 0.00 | 0.00 | 82 | 101.3 |
| 20260507043601 | 11 | 200 | 11.3 | 0.0 | 0.00 | 0.00 | 0.00 | 82 | 101.3 |
| 20260507043455 | 11 | 200 | 11.3 | 0.0 | 0.00 | 0.00 | 0.00 | 82 | 101.2 |
| 20260507043348 | 11 | 200 | 11.3 | 0.0 | 0.00 | 0.00 | 0.00 | 82 | 101.2 |
| 20260507043242 | 11 | 200 | 11.3 | 0.0 | 0.00 | 0.00 | 0.00 | 82 | 101.2 |
| 20260507043136 | 11 | 200 | 11.3 | 0.0 | 0.00 | 0.00 | 0.00 | 82 | 101.2 |
| 20260507043030 | 11 | 200 | 11.3 | 0.0 | 0.00 | 0.00 | 0.00 | 82 | 101.2 |
| 20260507042923 | 11 | 200 | 11.3 | 0.0 | 0.00 | 0.00 | 0.00 | 82 | 101.2 |
| 20260507042817 | 11 | 200 | 11.3 | 0.0 | 0.00 | 0.00 | 0.00 | 82 | 101.2 |
| 20260507042711 | 11 | 200 | 11.3 | 0.0 | 0.00 | 0.00 | 0.00 | 82 | 101.2 |
| 20260507042605 | 11 | 200 | 11.3 | 0.0 | 0.00 | 0.00 | 0.00 | 82 | 101.2 |
| 20260507042459 | 11 | 200 | 11.3 | 0.0 | 0.00 | 0.00 | 0.00 | 82 | 101.2 |
| 20260507042352 | 11 | 200 | 11.3 | 0.0 | 0.00 | 0.00 | 0.00 | 81 | 101.2 |
| 20260507042246 | 11 | 200 | 11.3 | 0.0 | 0.00 | 0.00 | 0.00 | 81 | 101.2 |
| 20260507042140 | 11 | 200 | 11.3 | 0.0 | 0.00 | 0.00 | 0.00 | 81 | 101.2 |
| 20260507042034 | 11 | 200 | 11.3 | 0.0 | 0.00 | 0.00 | 0.00 | 81 | 101.2 |
| 20260507041927 | 11 | 200 | 11.3 | 0.0 | 0.00 | 0.00 | 0.00 | 81 | 101.2 |
| 20260507041821 | 11 | 200 | 11.3 | 0.0 | 0.00 | 0.00 | 0.00 | 81 | 101.2 |
| 20260507041715 | 11 | 200 | 11.3 | 0.0 | 0.00 | 0.00 | 0.00 | 81 | 101.2 |
| 20260507041609 | 11 | 200 | 11.3 | 0.0 | 0.00 | 0.00 | 0.00 | 81 | 101.2 |
| 20260507041502 | 11 | 200 | 11.3 | 0.0 | 0.00 | 0.00 | 0.00 | 81 | 101.2 |
| 20260507041356 | 11 | 200 | 11.3 | 0.0 | 0.00 | 0.00 | 0.00 | 81 | 101.2 |
| 20260507041250 | 11 | 210 | 9.7 | 0.0 | 0.00 | 0.00 | 0.00 | 77 | 101.3 |
| 20260507041144 | 11 | 210 | 9.7 | 0.0 | 0.00 | 0.00 | 0.00 | 77 | 101.3 |
| 20260507041037 | 11 | 210 | 9.7 | 0.0 | 0.00 | 0.00 | 0.00 | 77 | 101.3 |
| 20260507040931 | 11 | 210 | 9.7 | 0.0 | 0.00 | 0.00 | 0.00 | 77 | 101.3 |
| 20260507040825 | 11 | 210 | 9.7 | 0.0 | 0.00 | 0.00 | 0.00 | 77 | 101.3 |
| 20260507040718 | 11 | 210 | 9.7 | 0.0 | 0.00 | 0.00 | 0.00 | 77 | 101.3 |
| 20260507040612 | 11 | 210 | 9.7 | 0.0 | 0.00 | 0.00 | 0.00 | 77 | 101.3 |
| 20260507040506 | 11 | 210 | 9.7 | 0.0 | 0.00 | 0.00 | 0.00 | 77 | 101.3 |
| 20260507040400 | 11 | 210 | 9.7 | 0.0 | 0.00 | 0.00 | 0.00 | 77 | 101.3 |
| 20260507040254 | 11 | 210 | 9.7 | 0.0 | 0.00 | 0.00 | 0.00 | 77 | 101.3 |
| 20260507040147 | 11 | 210 | 11.3 | 0.0 | 0.00 | 0.00 | 0.00 | 82 | 101.3 |
| 20260507040041 | 11 | 210 | 11.3 | 0.0 | 0.00 | 0.00 | 0.00 | 82 | 101.3 |
| 20260507035935 | 11 | 210 | 11.3 | 0.0 | 0.00 | 0.00 | 0.00 | 81 | 101.3 |
| 20260507035828 | 11 | 210 | 11.3 | 0.0 | 0.00 | 0.00 | 0.00 | 81 | 101.3 |
| 20260507035722 | 11 | 210 | 11.3 | 0.0 | 0.00 | 0.00 | 0.00 | 81 | 101.3 |
| 20260507035616 | 11 | 210 | 11.3 | 0.0 | 0.00 | 0.00 | 0.00 | 81 | 101.3 |
| 20260507035510 | 11 | 210 | 11.3 | 0.0 | 0.00 | 0.00 | 0.00 | 81 | 101.3 |
| 20260507035403 | 11 | 210 | 11.3 | 0.0 | 0.00 | 0.00 | 0.00 | 81 | 101.3 |
| 20260507035257 | 11 | 210 | 11.3 | 0.0 | 0.00 | 0.00 | 0.00 | 81 | 101.3 |
| 20260507035151 | 11 | 210 | 11.3 | 0.0 | 0.00 | 0.00 | 0.00 | 81 | 101.3 |
| 20260507035045 | 11 | 210 | 11.3 | 0.0 | 0.00 | 0.00 | 0.00 | 81 | 101.3 |
| 20260507034939 | 11 | 210 | 11.3 | 0.0 | 0.00 | 0.00 | 0.00 | 81 | 101.3 |
| 20260507034833 | 11 | 210 | 11.3 | 0.0 | 0.00 | 0.00 | 0.00 | 81 | 101.3 |
| 20260507034726 | 11 | 210 | 11.3 | 0.0 | 0.00 | 0.00 | 0.00 | 81 | 101.3 |
| 20260507034620 | 11 | 210 | 11.3 | 0.0 | 0.00 | 0.00 | 0.00 | 81 | 101.3 |
| 20260507034514 | 11 | 210 | 11.3 | 0.0 | 0.00 | 0.00 | 0.00 | 81 | 101.3 |
| 20260507034408 | 11 | 210 | 11.3 | 0.0 | 0.00 | 0.00 | 0.00 | 81 | 101.3 |
| 20260507034302 | 11 | 210 | 11.3 | 0.0 | 0.00 | 0.00 | 0.00 | 81 | 101.3 |
| 20260507034155 | 11 | 210 | 11.3 | 0.0 | 0.00 | 0.00 | 0.00 | 81 | 101.3 |
| 20260507034049 | 11 | 210 | 11.3 | 0.0 | 0.00 | 0.00 | 0.00 | 81 | 101.3 |
| 20260507033943 | 11 | 210 | 11.3 | 0.0 | 0.00 | 0.00 | 0.00 | 81 | 101.3 |
| 20260507033837 | 11 | 210 | 11.3 | 0.0 | 0.00 | 0.00 | 0.00 | 81 | 101.3 |
| 20260507033730 | 11 | 210 | 11.3 | 0.0 | 0.00 | 0.00 | 0.00 | 81 | 101.3 |
| 20260507033624 | 11 | 210 | 11.3 | 0.0 | 0.00 | 0.00 | 0.00 | 81 | 101.3 |
| 20260507033518 | 11 | 210 | 11.3 | 0.0 | 0.00 | 0.00 | 0.00 | 81 | 101.3 |
| 20260507033412 | 11 | 210 | 11.3 | 0.0 | 0.00 | 0.00 | 0.00 | 80 | 101.2 |
| 20260507033306 | 11 | 210 | 11.3 | 0.0 | 0.00 | 0.00 | 0.00 | 80 | 101.2 |
| 20260507033159 | 11 | 210 | 11.3 | 0.0 | 0.00 | 0.00 | 0.00 | 80 | 101.2 |
| 20260507033053 | 11 | 210 | 11.3 | 0.0 | 0.00 | 0.00 | 0.00 | 80 | 101.2 |
| 20260507032947 | 11 | 210 | 11.3 | 0.0 | 0.00 | 0.00 | 0.00 | 80 | 101.2 |
| 20260507032840 | 11 | 210 | 11.3 | 0.0 | 0.00 | 0.00 | 0.00 | 80 | 101.2 |
| 20260507032734 | 11 | 210 | 11.3 | 0.0 | 0.00 | 0.00 | 0.00 | 79 | 101.2 |
| 20260507032628 | 11 | 210 | 11.3 | 0.0 | 0.00 | 0.00 | 0.00 | 79 | 101.2 |
| 20260507032522 | 11 | 210 | 11.3 | 0.0 | 0.00 | 0.00 | 0.00 | 79 | 101.2 |
| 20260507032416 | 11 | 210 | 11.3 | 0.0 | 0.00 | 0.00 | 0.00 | 79 | 101.2 |
| 20260507032309 | 11 | 210 | 11.3 | 0.0 | 0.00 | 0.00 | 0.00 | 79 | 101.2 |
| 20260507032203 | 11 | 210 | 11.3 | 0.0 | 0.00 | 0.00 | 0.00 | 79 | 101.2 |
| 20260507032057 | 11 | 210 | 11.3 | 0.0 | 0.00 | 0.00 | 0.00 | 79 | 101.2 |
| 20260507031951 | 11 | 210 | 11.3 | 0.0 | 0.00 | 0.00 | 0.00 | 79 | 101.2 |
| 20260507031845 | 11 | 210 | 11.3 | 0.0 | 0.00 | 0.00 | 0.00 | 79 | 101.2 |
| 20260507031738 | 12 | 200 | 9.7 | 0.0 | 0.00 | 0.00 | 0.00 | 75 | 101.1 |
| 20260507031632 | 12 | 200 | 9.7 | 0.0 | 0.00 | 0.00 | 0.00 | 75 | 101.1 |
| 20260507031526 | 12 | 200 | 9.7 | 0.0 | 0.00 | 0.00 | 0.00 | 75 | 101.1 |
| 20260507031420 | 12 | 200 | 9.7 | 0.0 | 0.00 | 0.00 | 0.00 | 75 | 101.1 |
| 20260507031314 | 12 | 200 | 9.7 | 0.0 | 0.00 | 0.00 | 0.00 | 75 | 101.1 |
| 20260507031207 | 12 | 200 | 9.7 | 0.0 | 0.00 | 0.00 | 0.00 | 75 | 101.1 |
| 20260507031101 | 12 | 200 | 9.7 | 0.0 | 0.00 | 0.00 | 0.00 | 75 | 101.1 |
| 20260507030955 | 12 | 200 | 9.7 | 0.0 | 0.00 | 0.00 | 0.00 | 75 | 101.1 |
| 20260507030849 | 12 | 200 | 9.7 | 0.0 | 0.00 | 0.00 | 0.00 | 75 | 101.1 |
| 20260507030742 | 12 | 200 | 9.7 | 0.0 | 0.00 | 0.00 | 0.00 | 75 | 101.1 |
| 20260507030636 | 12 | 200 | 11.3 | 0.0 | 0.00 | 0.00 | 0.00 | 81 | 101.3 |
| 20260507030530 | 12 | 200 | 11.3 | 0.0 | 0.00 | 0.00 | 0.00 | 81 | 101.3 |
| 20260507030424 | 12 | 200 | 11.3 | 0.0 | 0.00 | 0.00 | 0.00 | 81 | 101.3 |
| 20260507030317 | 12 | 200 | 11.3 | 0.0 | 0.00 | 0.00 | 0.00 | 81 | 101.3 |
| 20260507030211 | 12 | 200 | 11.3 | 0.0 | 0.00 | 0.00 | 0.00 | 81 | 101.3 |
| 20260507030105 | 12 | 200 | 11.3 | 0.0 | 0.00 | 0.00 | 0.00 | 81 | 101.3 |
| 20260507025959 | 12 | 200 | 11.3 | 0.0 | 0.00 | 0.00 | 0.00 | 82 | 101.3 |
| 20260507025853 | 12 | 200 | 11.3 | 0.0 | 0.00 | 0.00 | 0.00 | 82 | 101.3 |
| 20260507025746 | 12 | 200 | 11.3 | 0.0 | 0.00 | 0.00 | 0.00 | 82 | 101.3 |
| 20260507025640 | 12 | 200 | 11.3 | 0.0 | 0.00 | 0.00 | 0.00 | 82 | 101.3 |
| 20260507025534 | 12 | 200 | 11.3 | 0.0 | 0.00 | 0.00 | 0.00 | 82 | 101.3 |
| 20260507025427 | 12 | 200 | 11.3 | 0.0 | 0.00 | 0.00 | 0.00 | 82 | 101.3 |
| 20260507025321 | 12 | 200 | 11.3 | 0.0 | 0.00 | 0.00 | 0.00 | 82 | 101.3 |
| 20260507025215 | 12 | 200 | 11.3 | 0.0 | 0.00 | 0.00 | 0.00 | 82 | 101.3 |
| 20260507025109 | 12 | 200 | 11.3 | 0.0 | 0.00 | 0.00 | 0.00 | 82 | 101.3 |
| 20260507025002 | 12 | 200 | 11.3 | 0.0 | 0.00 | 0.00 | 0.00 | 82 | 101.3 |
| 20260507024856 | 12 | 200 | 11.3 | 0.0 | 0.00 | 0.00 | 0.00 | 82 | 101.3 |
| 20260507024750 | 12 | 200 | 11.3 | 0.0 | 0.00 | 0.00 | 0.00 | 82 | 101.3 |
| 20260507024644 | 12 | 200 | 11.3 | 0.0 | 0.00 | 0.00 | 0.00 | 82 | 101.3 |
| 20260507024538 | 12 | 200 | 11.3 | 0.0 | 0.00 | 0.00 | 0.00 | 82 | 101.3 |
| 20260507024432 | 12 | 200 | 11.3 | 0.0 | 0.00 | 0.00 | 0.00 | 82 | 101.3 |
| 20260507024325 | 12 | 200 | 11.3 | 0.0 | 0.00 | 0.00 | 0.00 | 82 | 101.3 |
| 20260507024219 | 12 | 200 | 11.3 | 0.0 | 0.00 | 0.00 | 0.00 | 82 | 101.3 |
| 20260507024113 | 12 | 200 | 11.3 | 0.0 | 0.00 | 0.00 | 0.00 | 81 | 101.3 |
| 20260507024007 | 12 | 200 | 11.3 | 0.0 | 0.00 | 0.00 | 0.00 | 81 | 101.3 |
| 20260507023900 | 12 | 200 | 11.3 | 0.0 | 0.00 | 0.00 | 0.00 | 81 | 101.3 |
| 20260507023754 | 12 | 200 | 11.3 | 0.0 | 0.00 | 0.00 | 0.00 | 81 | 101.3 |
| 20260507023648 | 12 | 200 | 11.3 | 0.0 | 0.00 | 0.00 | 0.00 | 81 | 101.3 |
| 20260507023542 | 12 | 200 | 11.3 | 0.0 | 0.00 | 0.00 | 0.00 | 81 | 101.3 |
| 20260507023436 | 12 | 200 | 11.3 | 0.0 | 0.00 | 0.00 | 0.00 | 81 | 101.3 |
| 20260507023329 | 12 | 200 | 11.3 | 0.0 | 0.00 | 0.00 | 0.00 | 81 | 101.3 |
| 20260507023223 | 12 | 200 | 11.3 | 0.0 | 0.00 | 0.00 | 0.00 | 81 | 101.3 |
| 20260507023117 | 12 | 200 | 11.3 | 0.0 | 0.00 | 0.00 | 0.00 | 81 | 101.3 |
| 20260507023011 | 12 | 200 | 11.3 | 0.0 | 0.00 | 0.00 | 0.00 | 81 | 101.3 |
| 20260507022904 | 12 | 170 | 12.9 | 0.0 | 0.00 | 0.00 | 0.00 | 79 | 101.2 |
| 20260507022758 | 12 | 170 | 12.9 | 0.0 | 0.00 | 0.00 | 0.00 | 79 | 101.2 |
| 20260507022652 | 12 | 170 | 12.9 | 0.0 | 0.00 | 0.00 | 0.00 | 79 | 101.2 |
| 20260507022545 | 12 | 170 | 12.9 | 0.0 | 0.00 | 0.00 | 0.00 | 79 | 101.2 |
| 20260507022439 | 12 | 170 | 12.9 | 0.0 | 0.00 | 0.00 | 0.00 | 79 | 101.2 |
| 20260507022333 | 12 | 170 | 12.9 | 0.0 | 0.00 | 0.00 | 0.00 | 79 | 101.2 |
| 20260507022227 | 12 | 170 | 12.9 | 0.0 | 0.00 | 0.00 | 0.00 | 79 | 101.2 |
| 20260507022120 | 12 | 170 | 12.9 | 0.0 | 0.00 | 0.00 | 0.00 | 79 | 101.2 |
| 20260507022014 | 12 | 170 | 12.9 | 0.0 | 0.00 | 0.00 | 0.00 | 79 | 101.2 |
| 20260507021908 | 12 | 170 | 12.9 | 0.0 | 0.00 | 0.00 | 0.00 | 79 | 101.2 |
| 20260507021802 | 12 | 170 | 14.5 | 0.0 | 0.00 | 0.00 | 0.00 | 75 | 101.2 |
| 20260507021655 | 12 | 170 | 14.5 | 0.0 | 0.00 | 0.00 | 0.00 | 75 | 101.2 |
| 20260507021549 | 12 | 170 | 14.5 | 0.0 | 0.00 | 0.00 | 0.00 | 75 | 101.2 |
| 20260507021443 | 12 | 170 | 14.5 | 0.0 | 0.00 | 0.00 | 0.00 | 75 | 101.2 |
| 20260507021337 | 12 | 170 | 14.5 | 0.0 | 0.00 | 0.00 | 0.00 | 75 | 101.2 |
| 20260507021231 | 12 | 170 | 14.5 | 0.0 | 0.00 | 0.00 | 0.00 | 75 | 101.2 |
| 20260507021124 | 12 | 170 | 14.5 | 0.0 | 0.00 | 0.00 | 0.00 | 75 | 101.2 |
| 20260507021018 | 12 | 170 | 14.5 | 0.0 | 0.00 | 0.00 | 0.00 | 75 | 101.2 |
| 20260507020912 | 12 | 170 | 16.1 | 0.0 | 0.00 | 0.00 | 0.00 | 81 | 101.3 |
| 20260507020806 | 12 | 170 | 16.1 | 0.0 | 0.00 | 0.00 | 0.00 | 81 | 101.3 |
| 20260507020700 | 12 | 170 | 16.1 | 0.0 | 0.00 | 0.00 | 0.00 | 81 | 101.3 |
| 20260507020553 | 12 | 170 | 16.1 | 0.0 | 0.00 | 0.00 | 0.00 | 81 | 101.3 |
| 20260507020447 | 12 | 170 | 16.1 | 0.0 | 0.00 | 0.00 | 0.00 | 81 | 101.3 |
| 20260507020341 | 12 | 170 | 16.1 | 0.0 | 0.00 | 0.00 | 0.00 | 81 | 101.3 |
| 20260507020235 | 12 | 170 | 16.1 | 0.0 | 0.00 | 0.00 | 0.00 | 81 | 101.3 |
| 20260507020128 | 12 | 170 | 16.1 | 0.0 | 0.00 | 0.00 | 0.00 | 81 | 101.3 |
| 20260507020022 | 12 | 170 | 16.1 | 0.0 | 0.00 | 0.00 | 0.00 | 81 | 101.3 |
| 20260507015916 | 12 | 170 | 16.1 | 0.0 | 0.00 | 0.00 | 0.00 | 81 | 101.3 |
| 20260507015810 | 12 | 170 | 16.1 | 0.0 | 0.00 | 0.00 | 0.00 | 81 | 101.3 |
| 20260507015703 | 12 | 170 | 16.1 | 0.0 | 0.00 | 0.00 | 0.00 | 81 | 101.3 |
| 20260507015557 | 12 | 170 | 16.1 | 0.0 | 0.00 | 0.00 | 0.00 | 81 | 101.3 |
| 20260507015451 | 12 | 170 | 16.1 | 0.0 | 0.00 | 0.00 | 0.00 | 81 | 101.3 |
| 20260507015345 | 12 | 170 | 16.1 | 0.0 | 0.00 | 0.00 | 0.00 | 81 | 101.3 |
| 20260507015239 | 12 | 170 | 16.1 | 0.0 | 0.00 | 0.00 | 0.00 | 81 | 101.3 |
| 20260507015132 | 12 | 170 | 16.1 | 0.0 | 0.00 | 0.00 | 0.00 | 81 | 101.3 |
| 20260507015026 | 12 | 170 | 16.1 | 0.0 | 0.00 | 0.00 | 0.00 | 81 | 101.3 |
| 20260507014920 | 12 | 170 | 16.1 | 0.0 | 0.00 | 0.00 | 0.00 | 81 | 101.3 |
| 20260507014814 | 12 | 170 | 16.1 | 0.0 | 0.00 | 0.00 | 0.00 | 81 | 101.3 |
| 20260507014708 | 12 | 170 | 16.1 | 0.0 | 0.00 | 0.00 | 0.00 | 81 | 101.3 |
| 20260507014601 | 12 | 170 | 16.1 | 0.0 | 0.00 | 0.00 | 0.00 | 81 | 101.3 |
| 20260507014455 | 12 | 170 | 16.1 | 0.0 | 0.00 | 0.00 | 0.00 | 81 | 101.3 |
| 20260507014348 | 12 | 170 | 16.1 | 0.0 | 0.00 | 0.00 | 0.00 | 81 | 101.3 |
| 20260507014242 | 12 | 170 | 16.1 | 0.0 | 0.00 | 0.00 | 0.00 | 81 | 101.3 |
| 20260507014135 | 12 | 170 | 16.1 | 0.0 | 0.00 | 0.00 | 0.00 | 81 | 101.3 |
| 20260507014029 | 12 | 170 | 16.1 | 0.0 | 0.00 | 0.00 | 0.00 | 81 | 101.3 |
| 20260507013923 | 12 | 170 | 16.1 | 0.0 | 0.00 | 0.00 | 0.00 | 81 | 101.3 |
| 20260507013817 | 12 | 170 | 16.1 | 0.0 | 0.00 | 0.00 | 0.00 | 81 | 101.3 |
| 20260507013710 | 12 | 170 | 16.1 | 0.0 | 0.00 | 0.00 | 0.00 | 81 | 101.3 |
| 20260507013604 | 12 | 170 | 16.1 | 0.0 | 0.00 | 0.00 | 0.00 | 81 | 101.3 |
| 20260507013458 | 12 | 170 | 16.1 | 0.0 | 0.00 | 0.00 | 0.00 | 81 | 101.3 |
| 20260507013352 | 12 | 170 | 16.1 | 0.0 | 0.00 | 0.00 | 0.00 | 81 | 101.3 |
| 20260507013245 | 12 | 170 | 16.1 | 0.0 | 0.00 | 0.00 | 0.00 | 81 | 101.3 |
| 20260507013139 | 12 | 170 | 16.1 | 0.0 | 0.00 | 0.00 | 0.00 | 80 | 101.3 |
| 20260507013032 | 12 | 170 | 16.1 | 0.0 | 0.00 | 0.00 | 0.00 | 80 | 101.3 |
| 20260507012926 | 12 | 170 | 16.1 | 0.0 | 0.00 | 0.00 | 0.00 | 80 | 101.3 |
| 20260507012820 | 12 | 170 | 16.1 | 0.0 | 0.00 | 0.00 | 0.00 | 80 | 101.3 |
| 20260507012714 | 12 | 170 | 16.1 | 0.0 | 0.00 | 0.00 | 0.00 | 78 | 101.2 |
| 20260507012607 | 12 | 170 | 16.1 | 0.0 | 0.00 | 0.00 | 0.00 | 78 | 101.2 |
| 20260507012501 | 12 | 170 | 16.1 | 0.0 | 0.00 | 0.00 | 0.00 | 78 | 101.2 |
| 20260507012355 | 12 | 170 | 16.1 | 0.0 | 0.00 | 0.00 | 0.00 | 78 | 101.2 |
| 20260507012249 | 12 | 170 | 16.1 | 0.0 | 0.00 | 0.00 | 0.00 | 78 | 101.2 |
| 20260507012143 | 12 | 170 | 16.1 | 0.0 | 0.00 | 0.00 | 0.00 | 78 | 101.2 |
| 20260507012036 | 12 | 170 | 16.1 | 0.0 | 0.00 | 0.00 | 0.00 | 78 | 101.2 |
| 20260507011930 | 12 | 170 | 16.1 | 0.0 | 0.00 | 0.00 | 0.00 | 78 | 101.2 |
| 20260507011824 | 12 | 170 | 16.1 | 0.0 | 0.00 | 0.00 | 0.00 | 78 | 101.2 |
| 20260507011718 | 12 | 190 | 14.5 | 0.0 | 0.00 | 0.00 | 0.00 | 74 | 101.3 |
| 20260507011611 | 12 | 190 | 14.5 | 0.0 | 0.00 | 0.00 | 0.00 | 74 | 101.3 |
| 20260507011505 | 12 | 190 | 14.5 | 0.0 | 0.00 | 0.00 | 0.00 | 74 | 101.3 |
| 20260507011359 | 12 | 190 | 14.5 | 0.0 | 0.00 | 0.00 | 0.00 | 74 | 101.3 |
| 20260507011253 | 12 | 190 | 14.5 | 0.0 | 0.00 | 0.00 | 0.00 | 74 | 101.3 |
| 20260507011147 | 12 | 190 | 14.5 | 0.0 | 0.00 | 0.00 | 0.00 | 74 | 101.3 |
| 20260507011040 | 12 | 190 | 14.5 | 0.0 | 0.00 | 0.00 | 0.00 | 74 | 101.3 |
| 20260507010934 | 12 | 190 | 16.1 | 0.0 | 0.00 | 0.00 | 0.00 | 80 | 101.3 |
| 20260507010828 | 12 | 190 | 16.1 | 0.0 | 0.00 | 0.00 | 0.00 | 80 | 101.3 |
| 20260507010722 | 12 | 190 | 16.1 | 0.0 | 0.00 | 0.00 | 0.00 | 80 | 101.3 |
| 20260507010615 | 12 | 190 | 16.1 | 0.0 | 0.00 | 0.00 | 0.00 | 80 | 101.3 |
| 20260507010509 | 12 | 190 | 16.1 | 0.0 | 0.00 | 0.00 | 0.00 | 80 | 101.3 |
| 20260507010403 | 12 | 190 | 16.1 | 0.0 | 0.00 | 0.00 | 0.00 | 80 | 101.3 |
| 20260507010257 | 12 | 190 | 16.1 | 0.0 | 0.00 | 0.00 | 0.00 | 80 | 101.3 |
| 20260507010151 | 12 | 190 | 16.1 | 0.0 | 0.00 | 0.00 | 0.00 | 80 | 101.3 |
| 20260507010044 | 12 | 190 | 16.1 | 0.0 | 0.00 | 0.00 | 0.00 | 80 | 101.3 |
| 20260507005938 | 12 | 190 | 16.1 | 0.0 | 0.00 | 0.00 | 0.00 | 80 | 101.3 |
| 20260507005832 | 12 | 190 | 16.1 | 0.0 | 0.00 | 0.00 | 0.00 | 80 | 101.3 |
| 20260507005726 | 12 | 190 | 16.1 | 0.0 | 0.00 | 0.00 | 0.00 | 80 | 101.3 |
| 20260507005620 | 12 | 190 | 16.1 | 0.0 | 0.00 | 0.00 | 0.00 | 80 | 101.3 |
| 20260507005513 | 12 | 190 | 16.1 | 0.0 | 0.00 | 0.00 | 0.00 | 80 | 101.3 |
| 20260507005407 | 12 | 190 | 16.1 | 0.0 | 0.00 | 0.00 | 0.00 | 80 | 101.3 |
| 20260507005301 | 12 | 190 | 16.1 | 0.0 | 0.00 | 0.00 | 0.00 | 80 | 101.3 |
| 20260507005155 | 12 | 190 | 16.1 | 0.0 | 0.00 | 0.00 | 0.00 | 80 | 101.3 |
| 20260507005048 | 12 | 190 | 16.1 | 0.0 | 0.00 | 0.00 | 0.00 | 80 | 101.3 |
| 20260507004942 | 12 | 190 | 16.1 | 0.0 | 0.00 | 0.00 | 0.00 | 80 | 101.3 |
| 20260507004836 | 12 | 190 | 16.1 | 0.0 | 0.00 | 0.00 | 0.00 | 80 | 101.3 |
| 20260507004730 | 12 | 190 | 16.1 | 0.0 | 0.00 | 0.00 | 0.00 | 80 | 101.3 |
| 20260507004624 | 12 | 190 | 16.1 | 0.0 | 0.00 | 0.00 | 0.00 | 80 | 101.3 |
| 20260507004517 | 12 | 190 | 16.1 | 0.0 | 0.00 | 0.00 | 0.00 | 80 | 101.3 |
| 20260507004411 | 12 | 190 | 16.1 | 0.0 | 0.00 | 0.00 | 0.00 | 80 | 101.3 |
| 20260507004305 | 12 | 190 | 16.1 | 0.0 | 0.00 | 0.00 | 0.00 | 80 | 101.3 |
| 20260507004159 | 12 | 190 | 16.1 | 0.0 | 0.00 | 0.00 | 0.00 | 80 | 101.3 |
| 20260507004052 | 12 | 190 | 16.1 | 0.0 | 0.00 | 0.00 | 0.00 | 80 | 101.3 |
| 20260507003946 | 12 | 190 | 16.1 | 0.0 | 0.00 | 0.00 | 0.00 | 80 | 101.3 |
| 20260507003840 | 12 | 190 | 16.1 | 0.0 | 0.00 | 0.00 | 0.00 | 80 | 101.2 |
| 20260507003734 | 12 | 190 | 16.1 | 0.0 | 0.00 | 0.00 | 0.00 | 80 | 101.2 |
| 20260507003622 | 12 | 190 | 16.1 | 0.0 | 0.00 | 0.00 | 0.00 | 80 | 101.2 |
| 20260507003516 | 12 | 190 | 16.1 | 0.0 | 0.00 | 0.00 | 0.00 | 80 | 101.2 |
| 20260507003410 | 12 | 190 | 16.1 | 0.0 | 0.00 | 0.00 | 0.00 | 80 | 101.2 |
| 20260507003303 | 12 | 190 | 16.1 | 0.0 | 0.00 | 0.00 | 0.00 | 80 | 101.2 |
| 20260507003157 | 12 | 190 | 16.1 | 0.0 | 0.00 | 0.00 | 0.00 | 80 | 101.2 |
| 20260507003051 | 12 | 190 | 16.1 | 0.0 | 0.00 | 0.00 | 0.00 | 80 | 101.2 |
| 20260507002945 | 12 | 190 | 16.1 | 0.0 | 0.00 | 0.00 | 0.00 | 80 | 101.2 |
| 20260507002838 | 12 | 190 | 16.1 | 0.0 | 0.00 | 0.00 | 0.00 | 80 | 101.2 |
| 20260507002732 | 12 | 190 | 16.1 | 0.0 | 0.00 | 0.00 | 0.00 | 80 | 101.2 |
| 20260507002626 | 12 | 190 | 16.1 | 0.0 | 0.00 | 0.00 | 0.00 | 80 | 101.2 |
| 20260507002520 | 12 | 190 | 16.1 | 0.0 | 0.00 | 0.00 | 0.00 | 80 | 101.2 |
| 20260507002413 | 12 | 190 | 16.1 | 0.0 | 0.00 | 0.00 | 0.00 | 80 | 101.2 |
| 20260507002307 | 12 | 190 | 16.1 | 0.0 | 0.00 | 0.00 | 0.00 | 80 | 101.2 |
| 20260507002201 | 12 | 190 | 16.1 | 0.0 | 0.00 | 0.00 | 0.00 | 80 | 101.2 |
| 20260507002055 | 12 | 190 | 16.1 | 0.0 | 0.00 | 0.00 | 0.00 | 80 | 101.2 |
| 20260507001949 | 12 | 190 | 16.1 | 0.0 | 0.00 | 0.00 | 0.00 | 80 | 101.2 |
| 20260507001842 | 12 | 190 | 16.1 | 0.0 | 0.00 | 0.00 | 0.00 | 80 | 101.2 |
| 20260507001736 | 12 | 190 | 16.1 | 0.0 | 0.00 | 0.00 | 0.00 | 79 | 101.1 |
| 20260507001306 | 12 | 180 | 16.1 | 0.0 | 0.00 | 0.00 | 0.00 | 74 | 101.1 |
| 20260507001159 | 12 | 180 | 16.1 | 0.0 | 0.00 | 0.00 | 0.00 | 74 | 101.1 |
| 20260507001053 | 12 | 180 | 16.1 | 0.0 | 0.00 | 0.00 | 0.00 | 74 | 101.1 |
| 20260507000947 | 12 | 180 | 16.1 | 0.0 | 0.00 | 0.00 | 0.00 | 74 | 101.1 |
| 20260507000841 | 12 | 180 | 16.1 | 0.0 | 0.00 | 0.00 | 0.00 | 74 | 101.1 |
| 20260507000735 | 12 | 180 | 16.1 | 0.0 | 0.00 | 0.00 | 0.00 | 74 | 101.1 |
| 20260507000628 | 12 | 180 | 16.1 | 0.0 | 0.00 | 0.00 | 0.00 | 74 | 101.1 |
| 20260507000522 | 12 | 180 | 16.1 | 0.0 | 0.00 | 0.00 | 0.00 | 74 | 101.1 |
| 20260507000416 | 12 | 180 | 17.7 | 0.0 | 0.00 | 0.00 | 0.00 | 77 | 101.3 |
| 20260507000310 | 12 | 180 | 17.7 | 0.0 | 0.00 | 0.00 | 0.00 | 77 | 101.3 |
| 20260507000205 | 12 | 180 | 17.7 | 0.0 | 0.00 | 0.00 | 0.00 | 77 | 101.3 |
| 20260507000057 | 12 | 180 | 17.7 | 0.0 | 0.00 | 0.00 | 0.00 | 77 | 101.3 |
| 20260506235951 | 12 | 180 | 17.7 | 0.0 | 0.00 | 0.00 | 0.00 | 77 | 101.3 |
| 20260506235845 | 12 | 180 | 17.7 | 0.0 | 0.00 | 0.00 | 0.00 | 77 | 101.3 |
| 20260506235739 | 12 | 180 | 17.7 | 0.0 | 0.00 | 0.00 | 0.00 | 77 | 101.3 |
| 20260506235632 | 12 | 180 | 17.7 | 0.0 | 0.00 | 0.00 | 0.00 | 77 | 101.3 |
| 20260506235526 | 12 | 180 | 17.7 | 0.0 | 0.00 | 0.00 | 0.00 | 77 | 101.3 |
| 20260506235420 | 12 | 180 | 17.7 | 0.0 | 0.00 | 0.00 | 0.00 | 77 | 101.3 |
| 20260506235314 | 12 | 180 | 17.7 | 0.0 | 0.00 | 0.00 | 0.00 | 77 | 101.3 |
| 20260506235208 | 12 | 180 | 17.7 | 0.0 | 0.00 | 0.00 | 0.00 | 77 | 101.3 |
| 20260506235101 | 12 | 180 | 17.7 | 0.0 | 0.00 | 0.00 | 0.00 | 77 | 101.3 |
| 20260506234956 | 12 | 180 | 17.7 | 0.0 | 0.00 | 0.00 | 0.00 | 77 | 101.3 |
| 20260506234849 | 12 | 180 | 17.7 | 0.0 | 0.00 | 0.00 | 0.00 | 77 | 101.3 |
| 20260506234743 | 12 | 180 | 17.7 | 0.0 | 0.00 | 0.00 | 0.00 | 77 | 101.3 |
| 20260506234636 | 12 | 180 | 17.7 | 0.0 | 0.00 | 0.00 | 0.00 | 77 | 101.3 |
| 20260506234530 | 12 | 180 | 17.7 | 0.0 | 0.00 | 0.00 | 0.00 | 76 | 101.3 |
| 20260506234424 | 12 | 180 | 17.7 | 0.0 | 0.00 | 0.00 | 0.00 | 76 | 101.3 |
| 20260506234318 | 12 | 180 | 17.7 | 0.0 | 0.00 | 0.00 | 0.00 | 76 | 101.3 |
| 20260506234211 | 12 | 180 | 17.7 | 0.0 | 0.00 | 0.00 | 0.00 | 76 | 101.3 |
| 20260506234105 | 12 | 180 | 17.7 | 0.0 | 0.00 | 0.00 | 0.00 | 76 | 101.3 |
| 20260506233959 | 12 | 180 | 17.7 | 0.0 | 0.00 | 0.00 | 0.00 | 76 | 101.3 |
| 20260506233853 | 12 | 180 | 17.7 | 0.0 | 0.00 | 0.00 | 0.00 | 76 | 101.3 |
| 20260506233747 | 12 | 180 | 17.7 | 0.0 | 0.00 | 0.00 | 0.00 | 76 | 101.3 |
| 20260506233640 | 12 | 180 | 17.7 | 0.0 | 0.00 | 0.00 | 0.00 | 76 | 101.3 |
| 20260506233534 | 12 | 180 | 17.7 | 0.0 | 0.00 | 0.00 | 0.00 | 76 | 101.3 |
| 20260506233428 | 12 | 180 | 17.7 | 0.0 | 0.00 | 0.00 | 0.00 | 76 | 101.3 |
| 20260506233322 | 12 | 180 | 17.7 | 0.0 | 0.00 | 0.00 | 0.00 | 78 | 101.1 |
| 20260506233216 | 12 | 180 | 17.7 | 0.0 | 0.00 | 0.00 | 0.00 | 78 | 101.1 |
| 20260506233109 | 12 | 180 | 17.7 | 0.0 | 0.00 | 0.00 | 0.00 | 78 | 101.1 |
| 20260506233003 | 12 | 180 | 17.7 | 0.0 | 0.00 | 0.00 | 0.00 | 78 | 101.1 |
| 20260506232857 | 12 | 180 | 17.7 | 0.0 | 0.00 | 0.00 | 0.00 | 78 | 101.1 |
| 20260506232751 | 12 | 180 | 17.7 | 0.0 | 0.00 | 0.00 | 0.00 | 78 | 101.1 |
| 20260506232644 | 12 | 180 | 17.7 | 0.0 | 0.00 | 0.00 | 0.00 | 78 | 101.1 |
| 20260506232538 | 12 | 180 | 17.7 | 0.0 | 0.00 | 0.00 | 0.00 | 78 | 101.1 |
| 20260506232432 | 12 | 180 | 17.7 | 0.0 | 0.00 | 0.00 | 0.00 | 78 | 101.1 |
| 20260506232325 | 12 | 180 | 17.7 | 0.0 | 0.00 | 0.00 | 0.00 | 78 | 101.1 |
| 20260506232219 | 12 | 180 | 17.7 | 0.0 | 0.00 | 0.00 | 0.00 | 78 | 101.1 |
| 20260506232113 | 12 | 180 | 17.7 | 0.0 | 0.00 | 0.00 | 0.00 | 78 | 101.1 |
| 20260506232007 | 12 | 180 | 17.7 | 0.0 | 0.00 | 0.00 | 0.00 | 78 | 101.1 |
| 20260506231900 | 12 | 180 | 17.7 | 0.0 | 0.00 | 0.00 | 0.00 | 78 | 101.1 |
| 20260506231754 | 12 | 180 | 19.3 | 0.0 | 0.00 | 0.00 | 0.00 | 79 | 101.1 |
| 20260506231648 | 12 | 180 | 19.3 | 0.0 | 0.00 | 0.00 | 0.00 | 79 | 101.1 |
| 20260506231542 | 12 | 180 | 19.3 | 0.0 | 0.00 | 0.00 | 0.00 | 79 | 101.1 |
| 20260506231436 | 12 | 180 | 19.3 | 0.0 | 0.00 | 0.00 | 0.00 | 79 | 101.1 |
| 20260506231329 | 12 | 180 | 19.3 | 0.0 | 0.00 | 0.00 | 0.00 | 79 | 101.1 |
| 20260506231223 | 12 | 180 | 19.3 | 0.0 | 0.00 | 0.00 | 0.00 | 79 | 101.1 |
| 20260506231117 | 12 | 180 | 19.3 | 0.0 | 0.00 | 0.00 | 0.00 | 79 | 101.1 |
| 20260506231011 | 11 | 180 | 22.5 | 0.0 | 0.00 | 0.00 | 0.00 | 93 | 101.3 |
| 20260506230904 | 11 | 180 | 22.5 | 0.0 | 0.00 | 0.00 | 0.00 | 93 | 101.3 |
| 20260506230758 | 11 | 180 | 22.5 | 0.0 | 0.00 | 0.00 | 0.00 | 93 | 101.3 |
| 20260506230652 | 11 | 180 | 22.5 | 0.0 | 0.00 | 0.00 | 0.00 | 93 | 101.3 |
| 20260506230546 | 11 | 180 | 22.5 | 0.0 | 0.00 | 0.00 | 0.00 | 93 | 101.3 |
| 20260506230439 | 11 | 180 | 22.5 | 0.0 | 0.00 | 0.00 | 0.00 | 93 | 101.3 |
| 20260506230333 | 11 | 180 | 22.5 | 0.0 | 0.00 | 0.00 | 0.00 | 93 | 101.3 |
| 20260506230227 | 11 | 180 | 22.5 | 0.0 | 0.00 | 0.00 | 0.00 | 93 | 101.3 |
| 20260506230121 | 11 | 180 | 22.5 | 0.0 | 0.00 | 0.00 | 0.00 | 93 | 101.3 |
| 20260506230015 | 11 | 180 | 22.5 | 0.0 | 0.00 | 0.00 | 0.00 | 93 | 101.3 |
| 20260506225908 | 11 | 180 | 22.5 | 0.0 | 0.00 | 0.00 | 0.00 | 99 | 101.3 |
| 20260506225802 | 11 | 180 | 22.5 | 0.0 | 0.00 | 0.00 | 0.00 | 99 | 101.3 |
| 20260506225656 | 11 | 180 | 22.5 | 0.0 | 0.00 | 0.00 | 0.00 | 99 | 101.3 |
| 20260506225550 | 11 | 180 | 22.5 | 0.0 | 0.00 | 0.00 | 0.00 | 99 | 101.3 |
| 20260506225443 | 11 | 180 | 22.5 | 0.0 | 0.00 | 0.00 | 0.00 | 99 | 101.3 |
| 20260506225337 | 11 | 180 | 22.5 | 0.0 | 0.00 | 0.00 | 0.00 | 99 | 101.3 |
| 20260506225231 | 11 | 180 | 22.5 | 0.0 | 0.00 | 0.00 | 0.00 | 99 | 101.3 |
| 20260506225125 | 11 | 180 | 22.5 | 0.0 | 0.00 | 0.00 | 0.00 | 99 | 101.3 |
| 20260506225019 | 11 | 180 | 22.5 | 0.0 | 0.00 | 0.00 | 0.00 | 99 | 101.3 |
| 20260506224912 | 11 | 180 | 22.5 | 0.0 | 0.00 | 0.00 | 0.00 | 99 | 101.3 |
| 20260506224806 | 11 | 180 | 22.5 | 0.0 | 0.00 | 0.00 | 0.00 | 99 | 101.3 |
| 20260506224700 | 11 | 180 | 22.5 | 0.0 | 0.00 | 0.00 | 0.00 | 99 | 101.3 |
| 20260506224554 | 11 | 180 | 22.5 | 0.0 | 0.00 | 0.00 | 0.00 | 99 | 101.3 |
| 20260506224447 | 11 | 180 | 22.5 | 0.0 | 0.00 | 0.00 | 0.00 | 99 | 101.3 |
| 20260506224341 | 11 | 180 | 22.5 | 0.0 | 0.00 | 0.00 | 0.00 | 99 | 101.3 |
| 20260506224235 | 11 | 180 | 22.5 | 0.0 | 0.00 | 0.00 | 0.00 | 99 | 101.3 |
| 20260506224129 | 11 | 180 | 22.5 | 0.0 | 0.00 | 0.00 | 0.00 | 99 | 101.3 |
| 20260506224022 | 11 | 180 | 22.5 | 0.0 | 0.00 | 0.00 | 0.00 | 99 | 101.3 |
| 20260506223917 | 11 | 180 | 22.5 | 0.0 | 0.00 | 0.00 | 0.00 | 99 | 101.3 |
| 20260506223810 | 11 | 180 | 22.5 | 0.0 | 0.00 | 0.00 | 0.00 | 99 | 101.3 |
| 20260506223704 | 11 | 180 | 22.5 | 0.0 | 0.00 | 0.00 | 0.00 | 98 | 101.1 |
| 20260506223558 | 11 | 180 | 22.5 | 0.0 | 0.00 | 0.00 | 0.00 | 98 | 101.1 |
| 20260506223451 | 11 | 180 | 22.5 | 0.0 | 0.00 | 0.00 | 0.00 | 98 | 101.1 |
| 20260506223345 | 11 | 180 | 22.5 | 0.0 | 0.00 | 0.00 | 0.00 | 98 | 101.1 |
| 20260506223239 | 11 | 180 | 22.5 | 0.0 | 0.00 | 0.00 | 0.00 | 98 | 101.1 |
| 20260506223133 | 11 | 180 | 22.5 | 0.0 | 0.00 | 0.00 | 0.00 | 98 | 101.1 |
| 20260506223026 | 11 | 180 | 22.5 | 0.0 | 0.00 | 0.00 | 0.00 | 98 | 101.1 |
| 20260506222920 | 11 | 180 | 22.5 | 0.0 | 0.00 | 0.00 | 0.00 | 98 | 101.1 |
| 20260506222814 | 11 | 180 | 22.5 | 0.0 | 0.00 | 0.00 | 0.00 | 98 | 101.1 |
| 20260506222707 | 11 | 180 | 22.5 | 0.0 | 0.00 | 0.00 | 0.00 | 98 | 101.1 |
| 20260506222601 | 11 | 180 | 22.5 | 0.0 | 0.00 | 0.00 | 0.00 | 97 | 101.1 |
| 20260506222455 | 11 | 180 | 22.5 | 0.0 | 0.00 | 0.00 | 0.00 | 95 | 101.1 |
| 20260506222349 | 11 | 180 | 22.5 | 0.0 | 0.00 | 0.00 | 0.00 | 95 | 101.1 |
| 20260506222243 | 11 | 180 | 22.5 | 0.0 | 0.00 | 0.00 | 0.00 | 95 | 101.1 |
| 20260506222136 | 11 | 180 | 22.5 | 0.0 | 0.00 | 0.00 | 0.00 | 95 | 101.1 |
| 20260506222030 | 11 | 180 | 22.5 | 0.0 | 0.00 | 0.00 | 0.00 | 95 | 101.1 |
| 20260506221924 | 11 | 180 | 22.5 | 0.0 | 0.00 | 0.00 | 0.00 | 95 | 101.1 |
| 20260506221818 | 11 | 180 | 22.5 | 0.0 | 0.00 | 0.00 | 0.00 | 95 | 101.1 |
| 20260506221711 | 11 | 180 | 22.5 | 0.0 | 0.00 | 0.00 | 0.00 | 95 | 101.1 |
| 20260506221605 | 11 | 180 | 22.5 | 0.0 | 0.00 | 0.00 | 0.00 | 95 | 101.1 |
| 20260506221459 | 11 | 180 | 22.5 | 0.0 | 0.00 | 0.00 | 0.00 | 95 | 101.1 |
| 20260506221353 | 11 | 200 | 20.9 | 0.0 | 0.00 | 0.00 | 0.00 | 94 | 101.1 |
| 20260506221246 | 11 | 200 | 20.9 | 0.0 | 0.00 | 0.00 | 0.00 | 94 | 101.1 |
| 20260506221140 | 11 | 200 | 20.9 | 0.0 | 0.00 | 0.00 | 0.00 | 94 | 101.1 |
| 20260506221034 | 11 | 200 | 20.9 | 0.0 | 0.00 | 0.00 | 0.00 | 94 | 101.1 |
| 20260506220927 | 11 | 200 | 20.9 | 0.0 | 0.00 | 0.00 | 0.00 | 94 | 101.1 |
| 20260506220821 | 11 | 200 | 20.9 | 0.0 | 0.00 | 0.00 | 0.00 | 94 | 101.1 |
| 20260506220715 | 11 | 200 | 20.9 | 0.0 | 0.00 | 0.00 | 0.00 | 94 | 101.1 |
| 20260506220609 | 11 | 200 | 20.9 | 0.0 | 0.00 | 0.00 | 0.00 | 94 | 101.1 |
| 20260506220502 | 11 | 200 | 20.9 | 0.0 | 0.00 | 0.00 | 0.00 | 94 | 101.1 |
| 20260506220356 | 11 | 200 | 20.9 | 0.0 | 0.00 | 0.00 | 0.00 | 94 | 101.1 |
| 20260506220250 | 11 | 200 | 24.1 | 0.0 | 0.00 | 0.00 | 0.00 | 97 | 101.2 |
| 20260506220144 | 11 | 200 | 24.1 | 0.0 | 0.00 | 0.00 | 0.00 | 97 | 101.2 |
| 20260506220038 | 11 | 200 | 24.1 | 0.0 | 0.00 | 0.00 | 0.00 | 97 | 101.2 |
| 20260506215931 | 11 | 200 | 24.1 | 0.0 | 0.00 | 0.00 | 0.00 | 97 | 101.2 |
| 20260506215825 | 11 | 200 | 24.1 | 0.0 | 0.00 | 0.00 | 0.00 | 97 | 101.2 |
| 20260506215719 | 11 | 200 | 24.1 | 0.0 | 0.00 | 0.00 | 0.00 | 97 | 101.2 |
| 20260506215612 | 11 | 200 | 24.1 | 0.0 | 0.00 | 0.00 | 0.00 | 95 | 101.2 |
| 20260506215506 | 11 | 200 | 24.1 | 0.0 | 0.00 | 0.00 | 0.00 | 95 | 101.2 |
| 20260506215400 | 11 | 200 | 24.1 | 0.0 | 0.00 | 0.00 | 0.00 | 95 | 101.2 |
| 20260506215253 | 11 | 200 | 24.1 | 0.0 | 0.00 | 0.00 | 0.00 | 95 | 101.2 |
| 20260506215147 | 11 | 200 | 24.1 | 0.0 | 0.00 | 0.00 | 0.00 | 95 | 101.2 |
| 20260506215041 | 11 | 200 | 24.1 | 0.0 | 0.00 | 0.00 | 0.00 | 95 | 101.2 |
| 20260506214935 | 11 | 200 | 24.1 | 0.0 | 0.00 | 0.00 | 0.00 | 95 | 101.2 |
| 20260506214828 | 11 | 200 | 24.1 | 0.0 | 0.00 | 0.00 | 0.00 | 95 | 101.2 |
| 20260506214722 | 12 | 200 | 24.1 | 0.0 | 0.00 | 0.00 | 0.00 | 92 | 101.2 |
| 20260506214616 | 12 | 200 | 24.1 | 0.0 | 0.00 | 0.00 | 0.00 | 86 | 101.2 |
| 20260506214510 | 12 | 200 | 24.1 | 0.0 | 0.00 | 0.00 | 0.00 | 86 | 101.2 |
| 20260506214403 | 12 | 200 | 24.1 | 0.0 | 0.00 | 0.00 | 0.00 | 86 | 101.2 |
| 20260506214257 | 12 | 200 | 24.1 | 0.0 | 0.00 | 0.00 | 0.00 | 86 | 101.2 |
| 20260506214151 | 12 | 200 | 24.1 | 0.0 | 0.00 | 0.00 | 0.00 | 86 | 101.2 |
| 20260506214045 | 12 | 200 | 24.1 | 0.0 | 0.00 | 0.00 | 0.00 | 86 | 101.2 |
| 20260506213938 | 12 | 200 | 24.1 | 0.0 | 0.00 | 0.00 | 0.00 | 86 | 101.2 |
| 20260506213832 | 12 | 200 | 24.1 | 0.0 | 0.00 | 0.00 | 0.00 | 86 | 101.2 |
| 20260506213726 | 12 | 200 | 24.1 | 0.0 | 0.00 | 0.00 | 0.00 | 86 | 101.2 |
| 20260506213620 | 13 | 190 | 11.3 | 0.0 | 0.00 | 0.00 | 0.00 | 74 | 101.1 |
| 20260506213513 | 13 | 190 | 11.3 | 0.0 | 0.00 | 0.00 | 0.00 | 74 | 101.1 |
| 20260506213407 | 13 | 190 | 11.3 | 0.0 | 0.00 | 0.00 | 0.00 | 74 | 101.1 |
| 20260506213301 | 13 | 190 | 11.3 | 0.0 | 0.00 | 0.00 | 0.00 | 74 | 101.1 |
| 20260506213155 | 13 | 190 | 11.3 | 0.0 | 0.00 | 0.00 | 0.00 | 74 | 101.1 |
| 20260506213048 | 13 | 190 | 11.3 | 0.0 | 0.00 | 0.00 | 0.00 | 74 | 101.1 |
| 20260506212942 | 13 | 190 | 11.3 | 0.0 | 0.00 | 0.00 | 0.00 | 74 | 101.1 |
| 20260506212836 | 13 | 190 | 11.3 | 0.0 | 0.00 | 0.00 | 0.00 | 74 | 101.1 |
| 20260506212730 | 13 | 190 | 11.3 | 0.0 | 0.00 | 0.00 | 0.00 | 74 | 101.1 |
| 20260506212624 | 13 | 190 | 11.3 | 0.0 | 0.00 | 0.00 | 0.00 | 74 | 101.1 |
| 20260506212517 | 13 | 190 | 12.9 | 0.0 | 0.00 | 0.00 | 0.00 | 74 | 101.1 |
| 20260506212411 | 13 | 190 | 12.9 | 0.0 | 0.00 | 0.00 | 0.00 | 74 | 101.1 |
| 20260506212306 | 13 | 190 | 14.5 | 0.0 | 0.00 | 0.00 | 0.00 | 74 | 101.1 |
| 20260506212159 | 13 | 190 | 14.5 | 0.0 | 0.00 | 0.00 | 0.00 | 74 | 101.1 |
| 20260506212052 | 13 | 190 | 14.5 | 0.0 | 0.00 | 0.00 | 0.00 | 74 | 101.1 |
| 20260506211946 | 13 | 190 | 14.5 | 0.0 | 0.00 | 0.00 | 0.00 | 74 | 101.1 |
| 20260506211840 | 13 | 190 | 14.5 | 0.0 | 0.00 | 0.00 | 0.00 | 74 | 101.1 |
| 20260506211734 | 13 | 190 | 14.5 | 0.0 | 0.00 | 0.00 | 0.00 | 74 | 101.1 |
| 20260506211628 | 13 | 190 | 14.5 | 0.0 | 0.00 | 0.00 | 0.00 | 74 | 101.1 |
| 20260506211521 | 13 | 190 | 14.5 | 0.0 | 0.00 | 0.00 | 0.00 | 74 | 101.1 |
| 20260506211415 | 13 | 190 | 14.5 | 0.0 | 0.00 | 0.00 | 0.00 | 74 | 101.1 |
| 20260506211309 | 13 | 190 | 14.5 | 0.0 | 0.00 | 0.00 | 0.00 | 74 | 101.1 |
| 20260506211203 | 13 | 190 | 16.1 | 0.0 | 0.00 | 0.00 | 0.00 | 74 | 101.1 |
| 20260506211057 | 13 | 190 | 16.1 | 0.0 | 0.00 | 0.00 | 0.00 | 74 | 101.1 |
| 20260506210950 | 13 | 190 | 16.1 | 0.0 | 0.00 | 0.00 | 0.00 | 74 | 101.1 |
| 20260506210844 | 13 | 190 | 16.1 | 0.0 | 0.00 | 0.00 | 0.00 | 74 | 101.1 |
| 20260506210738 | 13 | 190 | 16.1 | 0.0 | 0.00 | 0.00 | 0.00 | 74 | 101.1 |
| 20260506210632 | 13 | 190 | 16.1 | 0.0 | 0.00 | 0.00 | 0.00 | 74 | 101.1 |
| 20260506210526 | 13 | 190 | 16.1 | 0.0 | 0.00 | 0.00 | 0.00 | 74 | 101.1 |
| 20260506210419 | 13 | 190 | 17.7 | 0.0 | 0.00 | 0.00 | 0.00 | 74 | 101.2 |
| 20260506210313 | 13 | 190 | 17.7 | 0.0 | 0.00 | 0.00 | 0.00 | 74 | 101.2 |
| 20260506210207 | 13 | 190 | 17.7 | 0.0 | 0.00 | 0.00 | 0.00 | 74 | 101.2 |
| 20260506210101 | 13 | 190 | 17.7 | 0.0 | 0.00 | 0.00 | 0.00 | 74 | 101.2 |
| 20260506205955 | 13 | 190 | 17.7 | 0.0 | 0.00 | 0.00 | 0.00 | 74 | 101.2 |
| 20260506205848 | 13 | 190 | 17.7 | 0.0 | 0.00 | 0.00 | 0.00 | 74 | 101.2 |
| 20260506205742 | 13 | 190 | 17.7 | 0.0 | 0.00 | 0.00 | 0.00 | 74 | 101.2 |
| 20260506205636 | 13 | 190 | 17.7 | 0.0 | 0.00 | 0.00 | 0.00 | 74 | 101.2 |
| 20260506205529 | 13 | 190 | 17.7 | 0.0 | 0.00 | 0.00 | 0.00 | 74 | 101.2 |
| 20260506205423 | 13 | 190 | 17.7 | 0.0 | 0.00 | 0.00 | 0.00 | 74 | 101.2 |
| 20260506205317 | 13 | 190 | 20.9 | 0.0 | 0.00 | 0.00 | 0.00 | 78 | 101.2 |
| 20260506205105 | 13 | 190 | 20.9 | 0.0 | 0.00 | 0.00 | 0.00 | 78 | 101.2 |
| 20260506204958 | 13 | 190 | 20.9 | 0.0 | 0.00 | 0.00 | 0.00 | 78 | 101.2 |
| 20260506204852 | 13 | 190 | 20.9 | 0.0 | 0.00 | 0.00 | 0.00 | 78 | 101.2 |
| 20260506204746 | 13 | 190 | 20.9 | 0.0 | 0.00 | 0.00 | 0.00 | 78 | 101.2 |
| 20260506204640 | 13 | 190 | 20.9 | 0.0 | 0.00 | 0.00 | 0.00 | 78 | 101.2 |
| 20260506204533 | 13 | 190 | 20.9 | 0.0 | 0.00 | 0.00 | 0.00 | 78 | 101.2 |
| 20260506204427 | 13 | 190 | 20.9 | 0.0 | 0.00 | 0.00 | 0.00 | 78 | 101.2 |
| 20260506204321 | 13 | 190 | 20.9 | 0.0 | 0.00 | 0.00 | 0.00 | 78 | 101.2 |
| 20260506204215 | 13 | 190 | 20.9 | 0.0 | 0.00 | 0.00 | 0.00 | 78 | 101.2 |
| 20260506204108 | 13 | 190 | 20.9 | 0.0 | 0.00 | 0.00 | 0.00 | 78 | 101.2 |
| 20260506204002 | 13 | 190 | 20.9 | 0.0 | 0.00 | 0.00 | 0.00 | 78 | 101.2 |
| 20260506203855 | 13 | 190 | 20.9 | 0.0 | 0.00 | 0.00 | 0.00 | 78 | 101.2 |
| 20260506203749 | 13 | 190 | 20.9 | 0.0 | 0.00 | 0.00 | 0.00 | 78 | 101.2 |
| 20260506203643 | 13 | 190 | 20.9 | 0.0 | 0.00 | 0.00 | 0.00 | 76 | 101.1 |
| 20260506203537 | 13 | 190 | 20.9 | 0.0 | 0.00 | 0.00 | 0.00 | 76 | 101.1 |
| 20260506203431 | 13 | 190 | 20.9 | 0.0 | 0.00 | 0.00 | 0.00 | 76 | 101.1 |
| 20260506203324 | 13 | 190 | 20.9 | 0.0 | 0.00 | 0.00 | 0.00 | 76 | 101.1 |
| 20260506203218 | 13 | 190 | 20.9 | 0.0 | 0.00 | 0.00 | 0.00 | 76 | 101.1 |
| 20260506203112 | 13 | 190 | 20.9 | 0.0 | 0.00 | 0.00 | 0.00 | 76 | 101.1 |
| 20260506203006 | 13 | 190 | 20.9 | 0.0 | 0.00 | 0.00 | 0.00 | 76 | 101.1 |
| 20260506202900 | 13 | 190 | 20.9 | 0.0 | 0.00 | 0.00 | 0.00 | 76 | 101.1 |
| 20260506202753 | 13 | 190 | 20.9 | 0.0 | 0.00 | 0.00 | 0.00 | 76 | 101.1 |
| 20260506202647 | 13 | 190 | 20.9 | 0.0 | 0.00 | 0.00 | 0.00 | 76 | 101.1 |
| 20260506202541 | 13 | 227 | 4.8 | 4.8 | 0.00 | 0.00 | 0.00 | 70 | 101.1 |
| 20260506202435 | 13 | 227 | 4.8 | 4.8 | 0.00 | 0.00 | 0.00 | 70 | 101.1 |
| 20260506202328 | 13 | 227 | 4.8 | 4.8 | 0.00 | 0.00 | 0.00 | 70 | 101.1 |
| 20260506202222 | 13 | 227 | 4.8 | 4.8 | 0.00 | 0.00 | 0.00 | 70 | 101.1 |
| 20260506202116 | 13 | 227 | 4.8 | 4.8 | 0.00 | 0.00 | 0.00 | 70 | 101.1 |
| 20260506202010 | 13 | 227 | 4.8 | 4.8 | 0.00 | 0.00 | 0.00 | 70 | 101.1 |
| 20260506201904 | 13 | 227 | 4.8 | 4.8 | 0.00 | 0.00 | 0.00 | 70 | 101.1 |
| 20260506201757 | 13 | 227 | 4.8 | 4.8 | 0.00 | 0.00 | 0.00 | 69 | 101.1 |
| 20260506201651 | 13 | 227 | 4.8 | 4.8 | 0.00 | 0.00 | 0.00 | 69 | 101.1 |
| 20260506201545 | 13 | 227 | 4.8 | 4.8 | 0.00 | 0.00 | 0.00 | 69 | 101.1 |
| 20260506201439 | 13 | 227 | 4.8 | 4.8 | 0.00 | 0.00 | 0.00 | 67 | 101.1 |
| 20260506201332 | 13 | 227 | 4.8 | 4.8 | 0.00 | 0.00 | 0.00 | 67 | 101.1 |
| 20260506201226 | 13 | 227 | 4.8 | 4.8 | 0.00 | 0.00 | 0.00 | 67 | 101.1 |
| 20260506201120 | 13 | 227 | 4.8 | 4.8 | 0.00 | 0.00 | 0.00 | 67 | 101.1 |
| 20260506201013 | 13 | 227 | 4.8 | 4.8 | 0.00 | 0.00 | 0.00 | 67 | 101.1 |
| 20260506200907 | 13 | 227 | 4.8 | 4.8 | 0.00 | 0.00 | 0.00 | 67 | 101.1 |
| 20260506200801 | 13 | 227 | 4.8 | 4.8 | 0.00 | 0.00 | 0.00 | 67 | 101.1 |
| 20260506200655 | 13 | 227 | 4.8 | 4.8 | 0.00 | 0.00 | 0.00 | 67 | 101.1 |
| 20260506200548 | 13 | 227 | 4.8 | 4.8 | 0.00 | 0.00 | 0.00 | 67 | 101.1 |
| 20260506200442 | 13 | 227 | 4.8 | 4.8 | 0.00 | 0.00 | 0.00 | 67 | 101.1 |
| 20260506200335 | 13 | 227 | 4.8 | 4.8 | 0.00 | 0.00 | 0.00 | 67 | 101.1 |
| 20260506200229 | 13 | 227 | 4.8 | 4.8 | 0.00 | 0.00 | 0.00 | 67 | 101.1 |
| 20260506200123 | 13 | 227 | 4.8 | 4.8 | 0.00 | 0.00 | 0.00 | 67 | 101.1 |
| 20260506200017 | 13 | 227 | 4.8 | 4.8 | 0.00 | 0.00 | 0.00 | 67 | 101.1 |
| 20260506195910 | 13 | 227 | 4.8 | 4.8 | 0.00 | 0.00 | 0.00 | 67 | 101.1 |
| 20260506195804 | 13 | 227 | 4.8 | 4.8 | 0.00 | 0.00 | 0.00 | 67 | 101.1 |
| 20260506195658 | 13 | 227 | 4.8 | 6.4 | 0.00 | 0.00 | 0.00 | 67 | 101.1 |
| 20260506195552 | 13 | 227 | 4.8 | 6.4 | 0.00 | 0.00 | 0.00 | 67 | 101.1 |
| 20260506195445 | 13 | 227 | 4.8 | 6.4 | 0.00 | 0.00 | 0.00 | 67 | 101.1 |
| 20260506195339 | 13 | 227 | 4.8 | 6.4 | 0.00 | 0.00 | 0.00 | 67 | 101.1 |
| 20260506195233 | 13 | 227 | 4.8 | 6.4 | 0.00 | 0.00 | 0.00 | 67 | 101.1 |
| 20260506195127 | 13 | 227 | 4.8 | 6.4 | 0.00 | 0.00 | 0.00 | 67 | 101.1 |
| 20260506195021 | 13 | 227 | 4.8 | 6.4 | 0.00 | 0.00 | 0.00 | 67 | 101.1 |
| 20260506194914 | 13 | 227 | 4.8 | 6.4 | 0.00 | 0.00 | 0.00 | 67 | 101.1 |
| 20260506194808 | 13 | 227 | 4.8 | 6.4 | 0.00 | 0.00 | 0.00 | 67 | 101.1 |
| 20260506194702 | 13 | 227 | 4.8 | 6.4 | 0.00 | 0.00 | 0.00 | 67 | 101.1 |
| 20260506194556 | 13 | 234 | 1.6 | 4.8 | 0.00 | 0.00 | 0.00 | 67 | 101.1 |
| 20260506194449 | 13 | 234 | 1.6 | 4.8 | 0.00 | 0.00 | 0.00 | 67 | 101.1 |
| 20260506194343 | 13 | 234 | 1.6 | 4.8 | 0.00 | 0.00 | 0.00 | 67 | 101.1 |
| 20260506194237 | 13 | 234 | 1.6 | 4.8 | 0.00 | 0.00 | 0.00 | 67 | 101.1 |
| 20260506194131 | 13 | 234 | 1.6 | 4.8 | 0.00 | 0.00 | 0.00 | 67 | 101.1 |
| 20260506194024 | 13 | 234 | 1.6 | 4.8 | 0.00 | 0.00 | 0.00 | 67 | 101.1 |
| 20260506193918 | 13 | 234 | 1.6 | 4.8 | 0.00 | 0.00 | 0.00 | 67 | 101.1 |
| 20260506193812 | 13 | 234 | 1.6 | 4.8 | 0.00 | 0.00 | 0.00 | 67 | 101.1 |
| 20260506193706 | 13 | 234 | 1.6 | 4.8 | 0.00 | 0.00 | 0.00 | 67 | 101.1 |
| 20260506193600 | 13 | 234 | 1.6 | 4.8 | 0.00 | 0.00 | 0.00 | 67 | 101.1 |
| 20260506193453 | 13 | 234 | 1.6 | 4.8 | 0.00 | 0.00 | 0.00 | 67 | 101.1 |
| 20260506193347 | 13 | 234 | 1.6 | 4.8 | 0.00 | 0.00 | 0.00 | 67 | 101.1 |
| 20260506193241 | 14 | 190 | 12.9 | 0.0 | 0.00 | 0.00 | 0.00 | 67 | 101.0 |
| 20260506193135 | 14 | 190 | 12.9 | 0.0 | 0.00 | 0.00 | 0.00 | 67 | 101.0 |
| 20260506193028 | 14 | 190 | 12.9 | 0.0 | 0.00 | 0.00 | 0.00 | 67 | 101.0 |
| 20260506192922 | 14 | 190 | 12.9 | 0.0 | 0.00 | 0.00 | 0.00 | 67 | 101.0 |
| 20260506192815 | 14 | 190 | 12.9 | 0.0 | 0.00 | 0.00 | 0.00 | 67 | 101.0 |
| 20260506192709 | 14 | 190 | 12.9 | 0.0 | 0.00 | 0.00 | 0.00 | 67 | 101.0 |
| 20260506192603 | 14 | 190 | 12.9 | 0.0 | 0.00 | 0.00 | 0.00 | 67 | 101.0 |
| 20260506192457 | 14 | 190 | 11.3 | 0.0 | 0.00 | 0.00 | 0.00 | 66 | 101.0 |
| 20260506192351 | 14 | 190 | 11.3 | 0.0 | 0.00 | 0.00 | 0.00 | 66 | 101.0 |
| 20260506192244 | 14 | 190 | 11.3 | 0.0 | 0.00 | 0.00 | 0.00 | 66 | 101.0 |
| 20260506192138 | 14 | 190 | 12.9 | 0.0 | 0.00 | 0.00 | 0.00 | 67 | 101.0 |
| 20260506192032 | 14 | 190 | 14.5 | 0.0 | 0.00 | 0.00 | 0.00 | 68 | 101.0 |
| 20260506191925 | 14 | 190 | 14.5 | 0.0 | 0.00 | 0.00 | 0.00 | 68 | 101.0 |
| 20260506191818 | 14 | 190 | 14.5 | 0.0 | 0.00 | 0.00 | 0.00 | 68 | 101.0 |
| 20260506191712 | 14 | 190 | 14.5 | 0.0 | 0.00 | 0.00 | 0.00 | 68 | 101.0 |
| 20260506191606 | 14 | 190 | 14.5 | 0.0 | 0.00 | 0.00 | 0.00 | 68 | 101.0 |
| 20260506191500 | 14 | 190 | 16.1 | 0.0 | 0.00 | 0.00 | 0.00 | 71 | 101.0 |
| 20260506191353 | 14 | 190 | 16.1 | 0.0 | 0.00 | 0.00 | 0.00 | 71 | 101.0 |
| 20260506191246 | 14 | 190 | 16.1 | 0.0 | 0.00 | 0.00 | 0.00 | 71 | 101.0 |
| 20260506191140 | 14 | 190 | 16.1 | 0.0 | 0.00 | 0.00 | 0.00 | 71 | 101.0 |
| 20260506191035 | 14 | 190 | 16.1 | 0.0 | 0.00 | 0.00 | 0.00 | 71 | 101.0 |
| 20260506190928 | 14 | 190 | 16.1 | 0.0 | 0.00 | 0.00 | 0.00 | 71 | 101.0 |
| 20260506190822 | 13 | 190 | 19.3 | 0.0 | 0.00 | 0.00 | 0.00 | 77 | 101.1 |
| 20260506190715 | 13 | 190 | 19.3 | 0.0 | 0.00 | 0.00 | 0.00 | 77 | 101.1 |
| 20260506190609 | 13 | 190 | 19.3 | 0.0 | 0.00 | 0.00 | 0.00 | 77 | 101.1 |
| 20260506190503 | 13 | 190 | 19.3 | 0.0 | 0.00 | 0.00 | 0.00 | 77 | 101.1 |
| 20260506190357 | 13 | 190 | 19.3 | 0.0 | 0.00 | 0.00 | 0.00 | 77 | 101.1 |
| 20260506190250 | 13 | 190 | 19.3 | 0.0 | 0.00 | 0.00 | 0.00 | 77 | 101.1 |
| 20260506190144 | 13 | 190 | 19.3 | 0.0 | 0.00 | 0.00 | 0.00 | 77 | 101.1 |
| 20260506190037 | 13 | 190 | 19.3 | 0.0 | 0.00 | 0.00 | 0.00 | 77 | 101.1 |
| 20260506185931 | 13 | 190 | 19.3 | 0.0 | 0.00 | 0.00 | 0.00 | 77 | 101.1 |
| 20260506185825 | 13 | 190 | 19.3 | 0.0 | 0.00 | 0.00 | 0.00 | 77 | 101.1 |
| 20260506185718 | 13 | 190 | 19.3 | 0.0 | 0.00 | 0.00 | 0.00 | 77 | 101.1 |
| 20260506185612 | 13 | 190 | 19.3 | 0.0 | 0.00 | 0.00 | 0.00 | 77 | 101.1 |
| 20260506185506 | 13 | 190 | 19.3 | 0.0 | 0.00 | 0.00 | 0.00 | 77 | 101.1 |
| 20260506185359 | 13 | 190 | 19.3 | 0.0 | 0.00 | 0.00 | 0.00 | 77 | 101.1 |
| 20260506185251 | 13 | 190 | 19.3 | 0.0 | 0.00 | 0.00 | 0.00 | 77 | 101.1 |
| 20260506185145 | 13 | 190 | 19.3 | 0.0 | 0.00 | 0.00 | 0.00 | 77 | 101.1 |
| 20260506185039 | 13 | 190 | 19.3 | 0.0 | 0.00 | 0.00 | 0.00 | 77 | 101.1 |
| 20260506184932 | 13 | 190 | 19.3 | 0.0 | 0.00 | 0.00 | 0.00 | 77 | 101.1 |
| 20260506184826 | 13 | 190 | 19.3 | 0.0 | 0.00 | 0.00 | 0.00 | 77 | 101.1 |
| 20260506184720 | 13 | 190 | 19.3 | 0.0 | 0.00 | 0.00 | 0.00 | 77 | 101.1 |
| 20260506184614 | 13 | 190 | 19.3 | 0.0 | 0.00 | 0.00 | 0.00 | 77 | 101.1 |
| 20260506184507 | 13 | 190 | 19.3 | 0.0 | 0.00 | 0.00 | 0.00 | 77 | 101.1 |
| 20260506184401 | 13 | 190 | 19.3 | 0.0 | 0.00 | 0.00 | 0.00 | 77 | 101.1 |
| 20260506184254 | 13 | 190 | 19.3 | 0.0 | 0.00 | 0.00 | 0.00 | 77 | 101.1 |
| 20260506184148 | 13 | 190 | 19.3 | 0.0 | 0.00 | 0.00 | 0.00 | 77 | 101.1 |
| 20260506184042 | 13 | 190 | 19.3 | 0.0 | 0.00 | 0.00 | 0.00 | 77 | 101.1 |
| 20260506183936 | 13 | 190 | 19.3 | 0.0 | 0.00 | 0.00 | 0.00 | 77 | 101.1 |
| 20260506183829 | 13 | 190 | 19.3 | 0.0 | 0.00 | 0.00 | 0.00 | 77 | 101.1 |
| 20260506183723 | 13 | 190 | 19.3 | 0.0 | 0.00 | 0.00 | 0.00 | 77 | 101.1 |
| 20260506183617 | 13 | 190 | 19.3 | 0.0 | 0.00 | 0.00 | 0.00 | 77 | 101.1 |
| 20260506183510 | 13 | 190 | 19.3 | 0.0 | 0.00 | 0.00 | 0.00 | 77 | 101.1 |
| 20260506183404 | 13 | 190 | 19.3 | 0.0 | 0.00 | 0.00 | 0.00 | 77 | 101.1 |
| 20260506183258 | 13 | 190 | 19.3 | 0.0 | 0.00 | 0.00 | 0.00 | 77 | 101.1 |
| 20260506183152 | 13 | 190 | 19.3 | 0.0 | 0.00 | 0.00 | 0.00 | 77 | 101.1 |
| 20260506183046 | 15 | 190 | 19.3 | 0.0 | 0.00 | 0.00 | 0.00 | 72 | 101.0 |
| 20260506182939 | 15 | 190 | 19.3 | 0.0 | 0.00 | 0.00 | 0.00 | 72 | 101.0 |
| 20260506182833 | 15 | 190 | 19.3 | 0.0 | 0.00 | 0.00 | 0.00 | 72 | 101.0 |
| 20260506182727 | 15 | 190 | 19.3 | 0.0 | 0.00 | 0.00 | 0.00 | 72 | 101.0 |
| 20260506182621 | 15 | 190 | 19.3 | 0.0 | 0.00 | 0.00 | 0.00 | 72 | 101.0 |
| 20260506182514 | 15 | 190 | 19.3 | 0.0 | 0.00 | 0.00 | 0.00 | 72 | 101.0 |
| 20260506182407 | 16 | 244 | 4.8 | 4.8 | 0.00 | 0.00 | 0.00 | 64 | 100.9 |
| 20260506182301 | 16 | 244 | 4.8 | 4.8 | 0.00 | 0.00 | 0.00 | 64 | 100.9 |
| 20260506182155 | 16 | 244 | 4.8 | 4.8 | 0.00 | 0.00 | 0.00 | 64 | 100.9 |
| 20260506182049 | 16 | 244 | 4.8 | 4.8 | 0.00 | 0.00 | 0.00 | 64 | 100.9 |
| 20260506181943 | 16 | 244 | 4.8 | 4.8 | 0.00 | 0.00 | 0.00 | 64 | 100.9 |
| 20260506181836 | 16 | 244 | 4.8 | 4.8 | 0.00 | 0.00 | 0.00 | 64 | 100.9 |
| 20260506181730 | 16 | 244 | 4.8 | 4.8 | 0.00 | 0.00 | 0.00 | 64 | 100.9 |
| 20260506181624 | 16 | 244 | 4.8 | 4.8 | 0.00 | 0.00 | 0.00 | 64 | 100.9 |
| 20260506181518 | 16 | 244 | 4.8 | 4.8 | 0.00 | 0.00 | 0.00 | 64 | 100.9 |
| 20260506181411 | 16 | 244 | 4.8 | 4.8 | 0.00 | 0.00 | 0.00 | 64 | 100.9 |
| 20260506181305 | 16 | 244 | 4.8 | 4.8 | 0.00 | 0.00 | 0.00 | 67 | 100.9 |
| 20260506181159 | 16 | 244 | 4.8 | 4.8 | 0.00 | 0.00 | 0.00 | 67 | 100.9 |
| 20260506181053 | 16 | 244 | 4.8 | 4.8 | 0.00 | 0.00 | 0.00 | 67 | 100.9 |
| 20260506180947 | 16 | 244 | 4.8 | 4.8 | 0.00 | 0.00 | 0.00 | 67 | 100.9 |
| 20260506180840 | 16 | 244 | 4.8 | 4.8 | 0.00 | 0.00 | 0.00 | 67 | 100.9 |
| 20260506180734 | 16 | 244 | 4.8 | 4.8 | 0.00 | 0.00 | 0.00 | 67 | 100.9 |
| 20260506180628 | 16 | 244 | 4.8 | 4.8 | 0.00 | 0.00 | 0.00 | 67 | 100.9 |
| 20260506180522 | 16 | 244 | 4.8 | 4.8 | 0.00 | 0.00 | 0.00 | 67 | 100.9 |
| 20260506180416 | 16 | 244 | 4.8 | 4.8 | 0.00 | 0.00 | 0.00 | 67 | 100.9 |
| 20260506180309 | 16 | 244 | 4.8 | 4.8 | 0.00 | 0.00 | 0.00 | 74 | 101.0 |
| 20260506180203 | 16 | 244 | 4.8 | 4.8 | 0.00 | 0.00 | 0.00 | 74 | 101.0 |
| 20260506180057 | 16 | 244 | 4.8 | 4.8 | 0.00 | 0.00 | 0.00 | 74 | 101.0 |
| 20260506175950 | 16 | 244 | 4.8 | 4.8 | 0.00 | 0.00 | 0.00 | 74 | 101.0 |
| 20260506175844 | 16 | 244 | 4.8 | 4.8 | 0.00 | 0.00 | 0.00 | 74 | 101.0 |
| 20260506175738 | 16 | 244 | 4.8 | 4.8 | 0.00 | 0.00 | 0.00 | 74 | 101.0 |
| 20260506175632 | 16 | 244 | 4.8 | 4.8 | 0.00 | 0.00 | 0.00 | 74 | 101.0 |
| 20260506175526 | 16 | 244 | 4.8 | 4.8 | 0.00 | 0.00 | 0.00 | 74 | 101.0 |
| 20260506175419 | 16 | 244 | 4.8 | 4.8 | 0.00 | 0.00 | 0.00 | 74 | 101.0 |
| 20260506175313 | 16 | 244 | 4.8 | 4.8 | 0.00 | 0.00 | 0.00 | 74 | 101.0 |
| 20260506175207 | 16 | 244 | 4.8 | 4.8 | 0.00 | 0.00 | 0.00 | 71 | 101.0 |
| 20260506175101 | 16 | 244 | 4.8 | 4.8 | 0.00 | 0.00 | 0.00 | 71 | 101.0 |
| 20260506174955 | 16 | 244 | 4.8 | 4.8 | 0.00 | 0.00 | 0.00 | 71 | 101.0 |
| 20260506174848 | 16 | 244 | 4.8 | 4.8 | 0.00 | 0.00 | 0.00 | 71 | 101.0 |
| 20260506174742 | 16 | 244 | 4.8 | 4.8 | 0.00 | 0.00 | 0.00 | 71 | 101.0 |
| 20260506174636 | 16 | 244 | 4.8 | 4.8 | 0.00 | 0.00 | 0.00 | 71 | 101.0 |
| 20260506174530 | 16 | 244 | 4.8 | 4.8 | 0.00 | 0.00 | 0.00 | 71 | 101.0 |
| 20260506174423 | 16 | 244 | 4.8 | 4.8 | 0.00 | 0.00 | 0.00 | 71 | 101.0 |
| 20260506174317 | 16 | 244 | 4.8 | 4.8 | 0.00 | 0.00 | 0.00 | 67 | 101.0 |
| 20260506174211 | 16 | 244 | 4.8 | 4.8 | 0.00 | 0.00 | 0.00 | 67 | 101.0 |
| 20260506174105 | 16 | 244 | 4.8 | 4.8 | 0.00 | 0.00 | 0.00 | 67 | 101.0 |
| 20260506173959 | 16 | 244 | 4.8 | 4.8 | 0.00 | 0.00 | 0.00 | 67 | 101.0 |
| 20260506173852 | 16 | 244 | 4.8 | 4.8 | 0.00 | 0.00 | 0.00 | 67 | 101.0 |
| 20260506173746 | 16 | 244 | 4.8 | 4.8 | 0.00 | 0.00 | 0.00 | 67 | 101.0 |
| 20260506173640 | 16 | 244 | 4.8 | 4.8 | 0.00 | 0.00 | 0.00 | 67 | 101.0 |
| 20260506173534 | 16 | 244 | 4.8 | 4.8 | 0.00 | 0.00 | 0.00 | 67 | 101.0 |
| 20260506173428 | 16 | 244 | 4.8 | 4.8 | 0.00 | 0.00 | 0.00 | 67 | 101.0 |
| 20260506173321 | 16 | 244 | 4.8 | 4.8 | 0.00 | 0.00 | 0.00 | 67 | 101.0 |
| 20260506173215 | 16 | 244 | 4.8 | 4.8 | 0.00 | 0.00 | 0.00 | 60 | 101.0 |
| 20260506173109 | 16 | 244 | 4.8 | 4.8 | 0.00 | 0.00 | 0.00 | 60 | 101.0 |
| 20260506173003 | 16 | 244 | 4.8 | 4.8 | 0.00 | 0.00 | 0.00 | 60 | 101.0 |
| 20260506172856 | 16 | 244 | 4.8 | 4.8 | 0.00 | 0.00 | 0.00 | 60 | 100.9 |
| 20260506172750 | 16 | 244 | 4.8 | 4.8 | 0.00 | 0.00 | 0.00 | 60 | 100.9 |
| 20260506172644 | 16 | 244 | 4.8 | 4.8 | 0.00 | 0.00 | 0.00 | 60 | 100.9 |
| 20260506172538 | 16 | 244 | 4.8 | 4.8 | 0.00 | 0.00 | 0.00 | 60 | 100.9 |
| 20260506172432 | 16 | 244 | 4.8 | 4.8 | 0.00 | 0.00 | 0.00 | 60 | 100.9 |
| 20260506172325 | 16 | 244 | 4.8 | 4.8 | 0.00 | 0.00 | 0.00 | 60 | 100.9 |
| 20260506172219 | 16 | 244 | 4.8 | 4.8 | 0.00 | 0.00 | 0.00 | 60 | 100.9 |
| 20260506172113 | 16 | 244 | 4.8 | 4.8 | 0.00 | 0.00 | 0.00 | 60 | 100.9 |
| 20260506172006 | 16 | 244 | 4.8 | 4.8 | 0.00 | 0.00 | 0.00 | 60 | 100.9 |
| 20260506171900 | 16 | 244 | 4.8 | 4.8 | 0.00 | 0.00 | 0.00 | 60 | 100.9 |
| 20260506171754 | 16 | 244 | 4.8 | 4.8 | 0.00 | 0.00 | 0.00 | 60 | 100.8 |
| 20260506171648 | 16 | 244 | 4.8 | 4.8 | 0.00 | 0.00 | 0.00 | 60 | 100.8 |
| 20260506171542 | 16 | 244 | 4.8 | 4.8 | 0.00 | 0.00 | 0.00 | 60 | 100.8 |
| 20260506171435 | 16 | 244 | 4.8 | 4.8 | 0.00 | 0.00 | 0.00 | 60 | 100.8 |
| 20260506171329 | 16 | 244 | 4.8 | 4.8 | 0.00 | 0.00 | 0.00 | 60 | 100.8 |
| 20260506171223 | 16 | 244 | 4.8 | 4.8 | 0.00 | 0.00 | 0.00 | 60 | 100.8 |
| 20260506171117 | 16 | 244 | 4.8 | 4.8 | 0.00 | 0.00 | 0.00 | 60 | 100.8 |
| 20260506171011 | 16 | 244 | 4.8 | 4.8 | 0.00 | 0.00 | 0.00 | 60 | 100.8 |
| 20260506170904 | 16 | 244 | 4.8 | 4.8 | 0.00 | 0.00 | 0.00 | 60 | 100.8 |
| 20260506170758 | 16 | 244 | 4.8 | 4.8 | 0.00 | 0.00 | 0.00 | 60 | 100.8 |
| 20260506170652 | 16 | 244 | 4.8 | 4.8 | 0.00 | 0.00 | 0.00 | 60 | 100.9 |
| 20260506170546 | 16 | 244 | 4.8 | 4.8 | 0.00 | 0.00 | 0.00 | 60 | 100.9 |
| 20260506170440 | 16 | 244 | 4.8 | 4.8 | 0.00 | 0.00 | 0.00 | 60 | 100.9 |
| 20260506170333 | 16 | 244 | 4.8 | 4.8 | 0.00 | 0.00 | 0.00 | 60 | 100.9 |
| 20260506170227 | 16 | 244 | 4.8 | 4.8 | 0.00 | 0.00 | 0.00 | 60 | 100.9 |
| 20260506170121 | 16 | 244 | 4.8 | 4.8 | 0.00 | 0.00 | 0.00 | 60 | 100.9 |
| 20260506170015 | 16 | 244 | 4.8 | 4.8 | 0.00 | 0.00 | 0.00 | 60 | 100.9 |
| 20260506165908 | 16 | 244 | 4.8 | 4.8 | 0.00 | 0.00 | 0.00 | 60 | 100.9 |
| 20260506165802 | 16 | 244 | 4.8 | 4.8 | 0.00 | 0.00 | 0.00 | 60 | 100.9 |
| 20260506165656 | 16 | 244 | 4.8 | 4.8 | 0.00 | 0.00 | 0.00 | 60 | 100.9 |
| 20260506165550 | 16 | 244 | 4.8 | 4.8 | 0.00 | 0.00 | 0.00 | 60 | 100.9 |
| 20260506165444 | 16 | 244 | 4.8 | 4.8 | 0.00 | 0.00 | 0.00 | 60 | 100.9 |
| 20260506165337 | 16 | 244 | 4.8 | 4.8 | 0.00 | 0.00 | 0.00 | 60 | 100.9 |
| 20260506165231 | 16 | 244 | 4.8 | 4.8 | 0.00 | 0.00 | 0.00 | 59 | 100.9 |
| 20260506165125 | 16 | 244 | 4.8 | 4.8 | 0.00 | 0.00 | 0.00 | 59 | 100.9 |
| 20260506165019 | 16 | 244 | 4.8 | 4.8 | 0.00 | 0.00 | 0.00 | 59 | 100.9 |
| 20260506164912 | 16 | 244 | 4.8 | 4.8 | 0.00 | 0.00 | 0.00 | 59 | 100.9 |
| 20260506164806 | 16 | 244 | 4.8 | 4.8 | 0.00 | 0.00 | 0.00 | 59 | 100.9 |
| 20260506164700 | 16 | 244 | 4.8 | 4.8 | 0.00 | 0.00 | 0.00 | 59 | 100.9 |
| 20260506164554 | 16 | 244 | 4.8 | 4.8 | 0.00 | 0.00 | 0.00 | 59 | 100.9 |
| 20260506164448 | 16 | 244 | 4.8 | 4.8 | 0.00 | 0.00 | 0.00 | 59 | 100.9 |
| 20260506164341 | 16 | 244 | 4.8 | 4.8 | 0.00 | 0.00 | 0.00 | 59 | 100.9 |
| 20260506164235 | 16 | 244 | 4.8 | 4.8 | 0.00 | 0.00 | 0.00 | 59 | 100.9 |
| 20260506164129 | 16 | 244 | 4.8 | 4.8 | 0.00 | 0.00 | 0.00 | 59 | 100.9 |
| 20260506164023 | 16 | 244 | 4.8 | 4.8 | 0.00 | 0.00 | 0.00 | 59 | 100.9 |
| 20260506163916 | 16 | 244 | 4.8 | 4.8 | 0.00 | 0.00 | 0.00 | 59 | 100.9 |
| 20260506163810 | 16 | 244 | 4.8 | 4.8 | 0.00 | 0.00 | 0.00 | 59 | 100.9 |
| 20260506163704 | 16 | 244 | 4.8 | 4.8 | 0.00 | 0.00 | 0.00 | 59 | 100.9 |
| 20260506163558 | 16 | 244 | 4.8 | 4.8 | 0.00 | 0.00 | 0.00 | 59 | 100.9 |
| 20260506163451 | 16 | 244 | 4.8 | 4.8 | 0.00 | 0.00 | 0.00 | 59 | 100.9 |
| 20260506163345 | 16 | 244 | 4.8 | 4.8 | 0.00 | 0.00 | 0.00 | 59 | 100.9 |
| 20260506163239 | 16 | 244 | 4.8 | 4.8 | 0.00 | 0.00 | 0.00 | 59 | 100.9 |
| 20260506163133 | 16 | 244 | 4.8 | 4.8 | 0.00 | 0.00 | 0.00 | 59 | 100.9 |
| 20260506163027 | 16 | 244 | 4.8 | 4.8 | 0.00 | 0.00 | 0.00 | 59 | 100.8 |
| 20260506162920 | 16 | 244 | 4.8 | 4.8 | 0.00 | 0.00 | 0.00 | 59 | 100.8 |
| 20260506162814 | 16 | 244 | 4.8 | 4.8 | 0.00 | 0.00 | 0.00 | 59 | 100.8 |
| 20260506162708 | 16 | 244 | 4.8 | 4.8 | 0.00 | 0.00 | 0.00 | 59 | 100.8 |
| 20260506162602 | 16 | 244 | 4.8 | 4.8 | 0.00 | 0.00 | 0.00 | 60 | 100.8 |
| 20260506162455 | 16 | 244 | 4.8 | 4.8 | 0.00 | 0.00 | 0.00 | 60 | 100.8 |
| 20260506162349 | 16 | 244 | 4.8 | 4.8 | 0.00 | 0.00 | 0.00 | 60 | 100.8 |
| 20260506162243 | 16 | 244 | 4.8 | 4.8 | 0.00 | 0.00 | 0.00 | 60 | 100.8 |
| 20260506162137 | 16 | 244 | 4.8 | 4.8 | 0.00 | 0.00 | 0.00 | 60 | 100.8 |
| 20260506162030 | 16 | 244 | 4.8 | 4.8 | 0.00 | 0.00 | 0.00 | 60 | 100.8 |
| 20260506161924 | 16 | 244 | 4.8 | 4.8 | 0.00 | 0.00 | 0.00 | 60 | 100.8 |
| 20260506161818 | 16 | 244 | 4.8 | 4.8 | 0.00 | 0.00 | 0.00 | 60 | 100.8 |
| 20260506161712 | 16 | 244 | 4.8 | 4.8 | 0.00 | 0.00 | 0.00 | 60 | 100.8 |
| 20260506161605 | 16 | 244 | 4.8 | 4.8 | 0.00 | 0.00 | 0.00 | 61 | 100.8 |
| 20260506161459 | 16 | 244 | 4.8 | 4.8 | 0.00 | 0.00 | 0.00 | 61 | 100.8 |
| 20260506161353 | 16 | 244 | 4.8 | 4.8 | 0.00 | 0.00 | 0.00 | 61 | 100.8 |
| 20260506161247 | 16 | 244 | 4.8 | 4.8 | 0.00 | 0.00 | 0.00 | 61 | 100.8 |
| 20260506161141 | 16 | 244 | 4.8 | 4.8 | 0.00 | 0.00 | 0.00 | 61 | 100.8 |
| 20260506161034 | 16 | 244 | 4.8 | 4.8 | 0.00 | 0.00 | 0.00 | 61 | 100.8 |
| 20260506160928 | 16 | 244 | 4.8 | 4.8 | 0.00 | 0.00 | 0.00 | 61 | 100.8 |
| 20260506160822 | 16 | 244 | 4.8 | 4.8 | 0.00 | 0.00 | 0.00 | 63 | 100.9 |
| 20260506160716 | 16 | 244 | 4.8 | 4.8 | 0.00 | 0.00 | 0.00 | 63 | 100.9 |
| 20260506160609 | 16 | 244 | 4.8 | 4.8 | 0.00 | 0.00 | 0.00 | 63 | 100.9 |
| 20260506160503 | 16 | 244 | 4.8 | 4.8 | 0.00 | 0.00 | 0.00 | 63 | 100.9 |
| 20260506160357 | 16 | 244 | 4.8 | 4.8 | 0.00 | 0.00 | 0.00 | 63 | 100.9 |
| 20260506160250 | 16 | 244 | 4.8 | 4.8 | 0.00 | 0.00 | 0.00 | 63 | 100.9 |
| 20260506160144 | 16 | 244 | 4.8 | 4.8 | 0.00 | 0.00 | 0.00 | 63 | 100.9 |
| 20260506160038 | 16 | 244 | 4.8 | 4.8 | 0.00 | 0.00 | 0.00 | 63 | 100.9 |
| 20260506155932 | 16 | 244 | 4.8 | 4.8 | 0.00 | 0.00 | 0.00 | 63 | 100.9 |
| 20260506155826 | 16 | 244 | 4.8 | 4.8 | 0.00 | 0.00 | 0.00 | 63 | 100.9 |
| 20260506155719 | 16 | 244 | 4.8 | 4.8 | 0.00 | 0.00 | 0.00 | 67 | 100.9 |
| 20260506155613 | 16 | 244 | 4.8 | 4.8 | 0.00 | 0.00 | 0.00 | 67 | 100.9 |
| 20260506155507 | 16 | 244 | 4.8 | 4.8 | 0.00 | 0.00 | 0.00 | 67 | 100.9 |
| 20260506155401 | 16 | 244 | 4.8 | 4.8 | 0.00 | 0.00 | 0.00 | 67 | 100.9 |
| 20260506155255 | 16 | 244 | 4.8 | 4.8 | 0.00 | 0.00 | 0.00 | 67 | 100.9 |
| 20260506155148 | 16 | 244 | 4.8 | 4.8 | 0.00 | 0.00 | 0.00 | 67 | 100.9 |
| 20260506155042 | 16 | 244 | 4.8 | 4.8 | 0.00 | 0.00 | 0.00 | 67 | 100.9 |
| 20260506154936 | 16 | 244 | 4.8 | 4.8 | 0.00 | 0.00 | 0.00 | 67 | 100.9 |
| 20260506154830 | 16 | 244 | 4.8 | 4.8 | 0.00 | 0.00 | 0.00 | 67 | 100.9 |
| 20260506154724 | 16 | 244 | 4.8 | 4.8 | 0.00 | 0.00 | 0.00 | 67 | 100.9 |
| 20260506154617 | 15 | 244 | 4.8 | 4.8 | 0.00 | 0.00 | 0.00 | 76 | 100.9 |
| 20260506154511 | 15 | 244 | 4.8 | 4.8 | 0.00 | 0.00 | 0.00 | 76 | 100.9 |
| 20260506154405 | 15 | 244 | 4.8 | 4.8 | 0.00 | 0.00 | 0.00 | 76 | 100.9 |
| 20260506154259 | 15 | 244 | 4.8 | 4.8 | 0.00 | 0.00 | 0.00 | 76 | 100.9 |
| 20260506154152 | 15 | 244 | 4.8 | 4.8 | 0.00 | 0.00 | 0.00 | 76 | 100.9 |
| 20260506154046 | 15 | 244 | 4.8 | 4.8 | 0.00 | 0.00 | 0.00 | 76 | 100.9 |
| 20260506153940 | 15 | 244 | 4.8 | 4.8 | 0.00 | 0.00 | 0.00 | 76 | 100.9 |
| 20260506153834 | 15 | 244 | 4.8 | 4.8 | 0.00 | 0.00 | 0.00 | 76 | 100.9 |
| 20260506153727 | 15 | 244 | 4.8 | 4.8 | 0.00 | 0.00 | 0.00 | 76 | 100.9 |
| 20260506153621 | 15 | 244 | 4.8 | 4.8 | 0.00 | 0.00 | 0.00 | 76 | 100.9 |
| 20260506153515 | 15 | 244 | 4.8 | 4.8 | 0.00 | 0.00 | 0.00 | 76 | 100.9 |
| 20260506153409 | 15 | 244 | 4.8 | 4.8 | 0.00 | 0.00 | 0.00 | 76 | 100.9 |
| 20260506153302 | 15 | 244 | 4.8 | 4.8 | 0.00 | 0.00 | 0.00 | 76 | 100.9 |
| 20260506153156 | 15 | 244 | 4.8 | 4.8 | 0.00 | 0.00 | 0.00 | 76 | 100.9 |
| 20260506153050 | 15 | 244 | 4.8 | 4.8 | 0.00 | 0.00 | 0.00 | 76 | 100.9 |
| 20260506152944 | 15 | 244 | 4.8 | 4.8 | 0.00 | 0.00 | 0.00 | 76 | 100.9 |
| 20260506152838 | 15 | 244 | 4.8 | 6.4 | 0.00 | 0.00 | 0.00 | 75 | 100.9 |
| 20260506152731 | 15 | 244 | 4.8 | 6.4 | 0.00 | 0.00 | 0.00 | 75 | 100.9 |
| 20260506152625 | 15 | 244 | 4.8 | 6.4 | 0.00 | 0.00 | 0.00 | 75 | 100.9 |
| 20260506152519 | 15 | 244 | 4.8 | 6.4 | 0.00 | 0.00 | 0.00 | 75 | 100.9 |
| 20260506152413 | 15 | 244 | 4.8 | 6.4 | 0.00 | 0.00 | 0.00 | 75 | 100.9 |
| 20260506152307 | 15 | 244 | 4.8 | 6.4 | 0.00 | 0.00 | 0.00 | 75 | 100.9 |
| 20260506152200 | 15 | 244 | 4.8 | 8.0 | 0.00 | 0.00 | 0.00 | 73 | 100.8 |
| 20260506152054 | 15 | 244 | 4.8 | 8.0 | 0.00 | 0.00 | 0.00 | 73 | 100.8 |
| 20260506151948 | 15 | 244 | 4.8 | 8.0 | 0.00 | 0.00 | 0.00 | 73 | 100.8 |
| 20260506151842 | 15 | 244 | 4.8 | 8.0 | 0.00 | 0.00 | 0.00 | 73 | 100.8 |
| 20260506151736 | 15 | 244 | 4.8 | 8.0 | 0.00 | 0.00 | 0.00 | 73 | 100.8 |
| 20260506151629 | 15 | 244 | 4.8 | 8.0 | 0.00 | 0.00 | 0.00 | 73 | 100.8 |
| 20260506151523 | 15 | 244 | 4.8 | 8.0 | 0.00 | 0.00 | 0.00 | 73 | 100.8 |
| 20260506151417 | 15 | 244 | 4.8 | 9.7 | 0.00 | 0.00 | 0.00 | 69 | 100.9 |
| 20260506151311 | 15 | 244 | 4.8 | 9.7 | 0.00 | 0.00 | 0.00 | 69 | 100.9 |
| 20260506151204 | 15 | 244 | 4.8 | 9.7 | 0.00 | 0.00 | 0.00 | 69 | 100.9 |
| 20260506151058 | 15 | 244 | 4.8 | 9.7 | 0.00 | 0.00 | 0.00 | 69 | 100.9 |
| 20260506150952 | 15 | 244 | 4.8 | 9.7 | 0.00 | 0.00 | 0.00 | 69 | 100.9 |
| 20260506150846 | 15 | 244 | 4.8 | 9.7 | 0.00 | 0.00 | 0.00 | 69 | 100.9 |
| 20260506150740 | 15 | 244 | 4.8 | 9.7 | 0.00 | 0.00 | 0.00 | 69 | 100.9 |
| 20260506150633 | 15 | 244 | 4.8 | 9.7 | 0.00 | 0.00 | 0.00 | 69 | 100.9 |
| 20260506150527 | 15 | 244 | 4.8 | 9.7 | 0.00 | 0.00 | 0.00 | 69 | 100.9 |
| 20260506150421 | 15 | 244 | 4.8 | 9.7 | 0.00 | 0.00 | 0.00 | 69 | 100.9 |
| 20260506150315 | 15 | 244 | 4.8 | 9.7 | 0.00 | 0.00 | 0.00 | 69 | 100.9 |
| 20260506150209 | 15 | 244 | 4.8 | 9.7 | 0.00 | 0.00 | 0.00 | 69 | 100.9 |
| 20260506145956 | 15 | 244 | 4.8 | 11.3 | 0.00 | 0.00 | 0.00 | 63 | 100.9 |
| 20260506145850 | 15 | 244 | 4.8 | 11.3 | 0.00 | 0.00 | 0.00 | 63 | 100.9 |
| 20260506145744 | 15 | 244 | 4.8 | 11.3 | 0.00 | 0.00 | 0.00 | 63 | 100.9 |
| 20260506145638 | 15 | 244 | 4.8 | 11.3 | 0.00 | 0.00 | 0.00 | 63 | 100.9 |
| 20260506145531 | 15 | 244 | 4.8 | 11.3 | 0.00 | 0.00 | 0.00 | 63 | 100.9 |
| 20260506145425 | 15 | 244 | 4.8 | 11.3 | 0.00 | 0.00 | 0.00 | 63 | 100.9 |
| 20260506145319 | 15 | 244 | 4.8 | 11.3 | 0.00 | 0.00 | 0.00 | 63 | 100.9 |
| 20260506145213 | 15 | 244 | 4.8 | 11.3 | 0.00 | 0.00 | 0.00 | 63 | 100.9 |
| 20260506145107 | 15 | 244 | 4.8 | 11.3 | 0.00 | 0.00 | 0.00 | 63 | 100.9 |
| 20260506145000 | 15 | 133 | 4.8 | 11.3 | 0.00 | 0.00 | 0.00 | 65 | 100.9 |
| 20260506144854 | 15 | 133 | 4.8 | 11.3 | 0.00 | 0.00 | 0.00 | 65 | 100.9 |
| 20260506144748 | 15 | 133 | 4.8 | 11.3 | 0.00 | 0.00 | 0.00 | 65 | 100.9 |
| 20260506144641 | 15 | 133 | 4.8 | 11.3 | 0.00 | 0.00 | 0.00 | 65 | 100.9 |
| 20260506144535 | 15 | 133 | 4.8 | 11.3 | 0.00 | 0.00 | 0.00 | 65 | 100.9 |
| 20260506144429 | 15 | 133 | 4.8 | 11.3 | 0.00 | 0.00 | 0.00 | 65 | 100.9 |
| 20260506144323 | 15 | 133 | 4.8 | 11.3 | 0.00 | 0.00 | 0.00 | 65 | 100.9 |
| 20260506144110 | 15 | 133 | 4.8 | 11.3 | 0.00 | 0.00 | 0.00 | 65 | 100.9 |
| 20260506144004 | 15 | 133 | 4.8 | 11.3 | 0.00 | 0.00 | 0.00 | 65 | 100.9 |
| 20260506143858 | 15 | 133 | 4.8 | 12.9 | 0.00 | 0.00 | 0.00 | 64 | 100.9 |
| 20260506143752 | 15 | 133 | 4.8 | 12.9 | 0.00 | 0.00 | 0.00 | 64 | 100.9 |
| 20260506143645 | 15 | 133 | 4.8 | 9.7 | 0.00 | 0.00 | 0.00 | 64 | 100.9 |
| 20260506143539 | 15 | 133 | 4.8 | 11.3 | 0.00 | 0.00 | 0.00 | 63 | 100.9 |
| 20260506143433 | 15 | 133 | 4.8 | 11.3 | 0.00 | 0.00 | 0.00 | 63 | 100.9 |
| 20260506143327 | 15 | 133 | 4.8 | 11.3 | 0.00 | 0.00 | 0.00 | 63 | 100.9 |
| 20260506143221 | 15 | 133 | 4.8 | 11.3 | 0.00 | 0.00 | 0.00 | 63 | 100.9 |
| 20260506143114 | 15 | 133 | 4.8 | 11.3 | 0.00 | 0.00 | 0.00 | 63 | 100.9 |
| 20260506143008 | 15 | 133 | 4.8 | 12.9 | 0.00 | 0.00 | 0.00 | 64 | 100.9 |
| 20260506142902 | 15 | 133 | 4.8 | 12.9 | 0.00 | 0.00 | 0.00 | 64 | 100.9 |
| 20260506142756 | 15 | 133 | 4.8 | 14.5 | 0.00 | 0.00 | 0.00 | 64 | 100.9 |
| 20260506142649 | 15 | 133 | 4.8 | 14.5 | 0.00 | 0.00 | 0.00 | 64 | 100.9 |
| 20260506142543 | 15 | 133 | 4.8 | 14.5 | 0.00 | 0.00 | 0.00 | 64 | 100.9 |